U26024 / G-UZHF 7700 Squawk Report (8th of August, 2022)

Aircraft A20N Reg No. G-UZHF Age 4 years old
Model A320 Jet engines 2 First flight 09-04-18
Registered 17-04-18 Rollout N/A Delivered 17-04-18
Construction No. 8193 Line No. N/A Series 251N(SL)
ADSHEX 4074B6 Airline name easyJet Owner N/A
Airfield based Luton~Beds~G First tracked N/A

Flight history for G-UZHF

Route Flight No Date Playback
Gatwick (LGW) - Arrecife Airport (ACE) U28685 2022-10-03 21:27:00
Arrecife Airport (ACE) - Gatwick (LGW) U28682 2022-10-03 17:35:00
Gatwick (LGW) - Arrecife Airport (ACE) U28681 2022-10-03 11:55:00
Arrecife Airport (ACE) - Gatwick (LGW) U28686 2022-10-03 04:16:00
Gatwick (LGW) - Arrecife Airport (ACE) U28685 2022-10-02 21:39:00
Bari (BRI) - Gatwick (LGW) U28366 2022-10-02 15:28:00
Gatwick (LGW) - Bari (BRI) U28365 2022-10-02 10:38:00
Gatwick (LGW) - Pafos Intl (PFO) U28937 2022-10-01 18:50:00
Fuerteventura (FUE) - Gatwick (LGW) U28536 2022-10-01 15:11:00
Gatwick (LGW) - Fuerteventura (FUE) U28535 2022-10-01 09:05:00
Pafos Intl (PFO) - Gatwick (LGW) U28938 2022-10-01 05:13:00
Gatwick (LGW) - Pafos Intl (PFO) U28937 2022-09-30 17:09:00
Malaga (AGP) - Gatwick (LGW) U28602 2022-09-30 11:39:00
Gatwick (LGW) - Malaga (AGP) U28601 2022-09-30 07:00:00
Región de Murcia International (RMU) - Gatwick (LGW) U28554 2022-09-29 23:56:00
Gatwick (LGW) - Región de Murcia International (RMU) U28553 2022-09-29 21:21:00
Dalaman (DLM) - Gatwick (LGW) U28844 2022-09-29 18:28:00
Gatwick (LGW) - Dalaman (DLM) U28843 2022-09-29 11:10:00
Arrecife Airport (ACE) - Gatwick (LGW) U28686 2022-09-28 23:00:00
Gatwick (LGW) - Arrecife Airport (ACE) U28685 2022-09-28 19:03:00
Time Lat Lon Altitude Heading Speed Vertical Rate
2022-08-08 19:51:11 GMT 51.386093 -2.705612 0 87 0
2022-08-08 19:50:51 GMT 51.386089 -2.705606 0 87 0
2022-08-08 19:50:30 GMT 51.386093 -2.705612 0 87 0
2022-08-08 19:50:20 GMT 51.386089 -2.705606 0 87 0
2022-08-08 19:49:00 GMT 51.386093 -2.705612 0 87 0
2022-08-08 19:48:05 GMT 51.386089 -2.705606 0 87 0
2022-08-08 19:47:15 GMT 51.386093 -2.705593 0 87 0
We lost coverage of the aircraft here for a total of 11 minutes
2022-08-08 19:36:32 GMT 51.387619 -2.706604 0 311 17 0
2022-08-08 19:36:27 GMT 51.386093 -2.705593 0 87 1 0
2022-08-08 19:36:18 GMT 51.386093 -2.705688 0 84 3 0
2022-08-08 19:36:09 GMT 51.386082 -2.705936 0 81 5 0
2022-08-08 19:35:58 GMT 51.386089 -2.706311 0 22 4 0
2022-08-08 19:35:49 GMT 51.385735 -2.706385 0 357 10 0
2022-08-08 19:35:39 GMT 51.385517 -2.706367 0 357 10 0
2022-08-08 19:35:34 GMT 51.385311 -2.706330 0 0 9 0
2022-08-08 19:35:29 GMT 51.385117 -2.706318 0 14 12 0
2022-08-08 19:35:23 GMT 51.384743 -2.706947 0 87 15 0
2022-08-08 19:35:08 GMT 51.384693 -2.708130 0 87 17 0
2022-08-08 19:34:58 GMT 51.384613 -2.710078 0 87 20 0
2022-08-08 19:34:44 GMT 51.384560 -2.711658 0 87 26 0
2022-08-08 19:34:32 GMT 51.384476 -2.713716 0 87 27 0
2022-08-08 19:34:25 GMT 51.384430 -2.715200 0 87 28 0
2022-08-08 19:34:22 GMT 51.384407 -2.715778 0 87 28 0
2022-08-08 19:34:13 GMT 51.384315 -2.718578 0 87 26 0
2022-08-08 19:34:02 GMT 51.384315 -2.719631 0 90 30 0
2022-08-08 19:33:58 GMT 51.384315 -2.720432 0 87 28 0
2022-08-08 19:33:48 GMT 51.384224 -2.722661 0 87 28 0
2022-08-08 19:33:44 GMT 51.384186 -2.723446 0 87 26 0
2022-08-08 19:33:38 GMT 51.384106 -2.725601 0 87 26 0
2022-08-08 19:33:30 GMT 51.384090 -2.726040 0 87 26 0
2022-08-08 19:33:23 GMT 51.384033 -2.727432 0 87 25 0
2022-08-08 19:33:20 GMT 51.384010 -2.728004 0 87 25 0
2022-08-08 19:33:11 GMT 51.383953 -2.729664 0 87 25 0
2022-08-08 19:33:01 GMT 51.383869 -2.731847 0 87 20 0
2022-08-08 19:32:55 GMT 51.383862 -2.732277 0 75 19 0
2022-08-08 19:32:51 GMT 51.383766 -2.732735 0 50 18 0
2022-08-08 19:32:48 GMT 51.383568 -2.733135 0 30 17 0
2022-08-08 19:32:45 GMT 51.383408 -2.733307 0 16 17 0
2022-08-08 19:32:40 GMT 51.383068 -2.733421 0 0 18 0
2022-08-08 19:32:35 GMT 51.382668 -2.733369 0 337 16 0
2022-08-08 19:32:28 GMT 51.382278 -2.732944 0 295 14 0
2022-08-08 19:32:22 GMT 51.382172 -2.732410 0 267 17 0
2022-08-08 19:32:18 GMT 51.382172 -2.731953 0 267 20 0
2022-08-08 19:32:14 GMT 51.382198 -2.731402 0 267 25 0
2022-08-08 19:32:10 GMT 51.382221 -2.730752 0 267 27 0
2022-08-08 19:32:05 GMT 51.382263 -2.729721 0 267 32 0
2022-08-08 19:32:02 GMT 51.382301 -2.728996 0 267 35 0
2022-08-08 19:31:58 GMT 51.382336 -2.728005 0 267 37 0
2022-08-08 19:31:54 GMT 51.382370 -2.726994 0 267 42 0
2022-08-08 19:31:51 GMT 51.382404 -2.726205 0 267 47 0
2022-08-08 19:31:48 GMT 51.382462 -2.724781 0 264 55 0
2022-08-08 19:31:45 GMT 51.382511 -2.723789 0 267 61 0
2022-08-08 19:31:41 GMT 51.382660 -2.719631 0 267 80 0
2022-08-08 19:31:37 GMT 51.382660 -2.719631 200 267 94 0
2022-08-08 19:31:31 GMT 51.382965 -2.711099 200 267 126 -384
2022-08-08 19:31:27 GMT 51.382965 -2.711563 175 267 125 -192
2022-08-08 19:31:20 GMT 51.383240 -2.705309 275 267 125 -576
2022-08-08 19:31:17 GMT 51.383335 -2.702026 325 267 124 -704
2022-08-08 19:31:13 GMT 51.383476 -2.698746 350 267 124 -576
2022-08-08 19:31:10 GMT 51.383614 -2.695618 375 267 124 -640
2022-08-08 19:31:07 GMT 51.383743 -2.692022 425 267 124 -704
2022-08-08 19:31:04 GMT 51.383789 -2.690537 450 267 124 -704
2022-08-08 19:31:01 GMT 51.383896 -2.687759 475 267 124 -640
2022-08-08 19:30:58 GMT 51.384064 -2.683708 525 267 125 -640
2022-08-08 19:30:55 GMT 51.384129 -2.681885 600 267 126 -640
2022-08-08 19:30:48 GMT 51.384338 -2.676210 600 267 126 -640
2022-08-08 19:30:45 GMT 51.384476 -2.672721 650 267 126 -704
2022-08-08 19:30:42 GMT 51.384659 -2.668638 750 267 127 -640
2022-08-08 19:30:38 GMT 51.384731 -2.666321 750 267 127 -640
2022-08-08 19:30:35 GMT 51.384872 -2.662888 775 267 127 -640
2022-08-08 19:30:31 GMT 51.385208 -2.654906 850 267 128 -704
2022-08-08 19:30:28 GMT 51.385117 -2.657355 825 267 127 -704
2022-08-08 19:30:24 GMT 51.385246 -2.653046 875 267 128 -640
2022-08-08 19:30:19 GMT 51.385429 -2.648010 950 267 128 -640
2022-08-08 19:30:14 GMT 51.385616 -2.643738 1,000 267 128 -576
2022-08-08 19:30:10 GMT 51.385757 -2.639618 1,050 267 129 -640
2022-08-08 19:30:07 GMT 51.385941 -2.633972 1,100 267 129 -640
2022-08-08 19:30:04 GMT 51.385941 -2.633972 1,100 267 129 -640
2022-08-08 19:30:00 GMT 51.386078 -2.630038 1,150 267 130 -640
2022-08-08 19:29:57 GMT 51.386169 -2.628108 1,175 267 130 -640
2022-08-08 19:29:54 GMT 51.386269 -2.624741 1,225 267 132 -704
2022-08-08 19:29:51 GMT 51.386360 -2.621918 1,275 267 134 -704
2022-08-08 19:29:47 GMT 51.386501 -2.618103 1,275 267 134 -704
2022-08-08 19:29:44 GMT 51.386627 -2.614598 1,325 267 138 -704
2022-08-08 19:29:41 GMT 51.386875 -2.608795 1,450 266 152 -1024
2022-08-08 19:29:38 GMT 51.386875 -2.608795 1,400 267 144 -704
2022-08-08 19:29:34 GMT 51.387058 -2.604675 1,425 267 147 -704
2022-08-08 19:29:31 GMT 51.387222 -2.600642 1,475 267 150 -896
2022-08-08 19:29:28 GMT 51.387341 -2.597809 1,525 266 153 -1088
2022-08-08 19:29:24 GMT 51.387543 -2.593293 1,600 266 157 -832
2022-08-08 19:29:20 GMT 51.387772 -2.587206 1,700 267 166 -704
2022-08-08 19:29:17 GMT 51.387852 -2.585831 1,775 267 175 -768
2022-08-08 19:29:14 GMT 51.388039 -2.581482 1,775 267 175 -768
2022-08-08 19:29:11 GMT 51.388130 -2.578278 1,775 267 175 -768
2022-08-08 19:29:08 GMT 51.388275 -2.574587 1,825 267 175 -768
2022-08-08 19:29:06 GMT 51.388409 -2.571945 1,900 267 175 -768
2022-08-08 19:29:01 GMT 51.388641 -2.565753 1,925 267 176 -832
2022-08-08 19:28:58 GMT 51.388783 -2.561264 2,075 268 178 -960
2022-08-08 19:28:55 GMT 51.388870 -2.557810 2,075 268 178 -960
2022-08-08 19:28:52 GMT 51.389099 -2.549496 2,075 268 179 -960
2022-08-08 19:28:49 GMT 51.389099 -2.549496 2,125 269 180 -960
2022-08-08 19:28:46 GMT 51.389191 -2.546156 2,250 270 181 -960
2022-08-08 19:28:44 GMT 51.389236 -2.542667 2,175 270 180 -896
2022-08-08 19:28:39 GMT 51.389339 -2.535400 2,300 271 181 -960
2022-08-08 19:28:36 GMT 51.389339 -2.532883 2,400 272 183 -960
2022-08-08 19:28:34 GMT 51.389328 -2.529082 2,350 272 182 -960
2022-08-08 19:28:29 GMT 51.389145 -2.518616 2,425 273 183 -960
2022-08-08 19:28:26 GMT 51.389145 -2.518616 2,575 274 184 -1024
2022-08-08 19:28:24 GMT 51.389061 -2.515182 2,500 273 184 -960
2022-08-08 19:28:21 GMT 51.388969 -2.512207 2,550 274 184 -1024
2022-08-08 19:28:17 GMT 51.388737 -2.506485 2,625 281 183 -1088
2022-08-08 19:28:14 GMT 51.388458 -2.502213 2,675 287 182 -1152
2022-08-08 19:28:11 GMT 51.387943 -2.498627 2,825 304 184 -1024
2022-08-08 19:28:08 GMT 51.386719 -2.493451 2,800 301 182 -1088
2022-08-08 19:28:05 GMT 51.385941 -2.491224 2,850 307 186 -832
2022-08-08 19:28:01 GMT 51.384018 -2.486696 2,900 307 186 -768
2022-08-08 19:27:58 GMT 51.382450 -2.483292 2,925 307 188 -768
2022-08-08 19:27:55 GMT 51.380676 -2.479421 2,975 307 187 -320
2022-08-08 19:27:53 GMT 51.379669 -2.477194 3,000 322 188 -256
2022-08-08 19:27:50 GMT 51.378590 -2.474899 3,000 307 187 -384
2022-08-08 19:27:47 GMT 51.376587 -2.470551 3,025 309 187 -256
2022-08-08 19:27:44 GMT 51.374958 -2.467270 3,025 310 188 -256
2022-08-08 19:27:41 GMT 51.373325 -2.463989 3,050 313 188 -256
2022-08-08 19:27:38 GMT 51.371704 -2.461012 3,050 317 188 -192
2022-08-08 19:27:35 GMT 51.369690 -2.457894 3,100 332 187 -256
2022-08-08 19:27:31 GMT 51.367134 -2.454910 3,100 334 188 -256
2022-08-08 19:27:27 GMT 51.363644 -2.452011 3,100 345 189 -192
2022-08-08 19:27:23 GMT 51.360352 -2.450545 3,125 358 191 -448
2022-08-08 19:27:20 GMT 51.357651 -2.450100 3,150 1 193 -448
2022-08-08 19:27:17 GMT 51.354446 -2.450248 3,175 9 194 -576
2022-08-08 19:27:14 GMT 51.353210 -2.450545 3,200 14 195 -576
2022-08-08 19:27:11 GMT 51.349541 -2.452240 3,250 23 197 -832
2022-08-08 19:27:07 GMT 51.346886 -2.454224 3,300 33 199 -832
2022-08-08 19:27:04 GMT 51.344971 -2.456038 3,350 42 202 -832
2022-08-08 19:27:00 GMT 51.341671 -2.460480 3,375 47 203 -896
2022-08-08 19:26:57 GMT 51.339668 -2.463989 3,450 56 206 -896
2022-08-08 19:26:54 GMT 51.338367 -2.467194 3,500 61 208 -960
2022-08-08 19:26:51 GMT 51.336643 -2.472458 3,525 70 211 -1088
2022-08-08 19:26:48 GMT 51.335587 -2.477120 3,600 76 215 -1088
2022-08-08 19:26:45 GMT 51.334923 -2.481155 3,625 78 218 -960
2022-08-08 19:26:43 GMT 51.334084 -2.487869 3,675 79 220 -832
2022-08-08 19:26:40 GMT 51.334084 -2.487869 3,675 79 221 -768
2022-08-08 19:26:37 GMT 51.333435 -2.493377 3,775 79 225 -704
2022-08-08 19:26:34 GMT 51.332565 -2.501023 3,800 79 227 -640
2022-08-08 19:26:31 GMT 51.332199 -2.504140 3,825 79 228 -640
2022-08-08 19:26:29 GMT 51.331944 -2.506332 3,850 79 229 -640
2022-08-08 19:26:26 GMT 51.331291 -2.511978 3,875 79 230 -640
2022-08-08 19:26:23 GMT 51.330547 -2.518005 3,900 79 232 -640
2022-08-08 19:26:20 GMT 51.330185 -2.521288 3,950 79 235 -640
2022-08-08 19:26:17 GMT 51.329407 -2.527524 3,975 79 236 -640
2022-08-08 19:26:14 GMT 51.328869 -2.532043 4,000 78 239 -640
2022-08-08 19:26:11 GMT 51.328217 -2.537537 4,050 78 239 -640
2022-08-08 19:26:09 GMT 51.327759 -2.541034 4,050 78 240 -640
2022-08-08 19:26:06 GMT 51.327118 -2.546453 4,075 78 242 -640
2022-08-08 19:26:03 GMT 51.326660 -2.550090 4,100 78 243 -640
2022-08-08 19:26:00 GMT 51.325890 -2.556534 4,175 78 245 -640
2022-08-08 19:25:57 GMT 51.325237 -2.561646 4,175 78 248 -704
2022-08-08 19:25:54 GMT 51.324726 -2.565994 4,225 78 250 -640
2022-08-08 19:25:51 GMT 51.323822 -2.573250 4,250 78 251 -640
2022-08-08 19:25:49 GMT 51.323273 -2.577853 4,275 78 253 -640
2022-08-08 19:25:46 GMT 51.322586 -2.583389 4,300 78 254 -640
2022-08-08 19:25:43 GMT 51.322128 -2.587206 4,325 78 258 -704
2022-08-08 19:25:41 GMT 51.321533 -2.591808 4,350 78 258 -704
2022-08-08 19:25:39 GMT 51.321190 -2.594528 4,375 78 259 -704
2022-08-08 19:25:36 GMT 51.320538 -2.600174 4,400 78 261 -704
2022-08-08 19:25:33 GMT 51.319702 -2.606729 4,500 79 263 -704
2022-08-08 19:25:30 GMT 51.319279 -2.610474 4,475 79 265 -832
2022-08-08 19:25:28 GMT 51.318676 -2.615204 4,550 79 266 -1152
2022-08-08 19:25:25 GMT 51.317963 -2.621353 4,625 79 267 -1408
2022-08-08 19:25:22 GMT 51.317139 -2.628174 4,650 79 267 -1408
2022-08-08 19:25:19 GMT 51.315811 -2.639020 4,825 78 270 -1472
2022-08-08 19:25:16 GMT 51.315811 -2.639020 4,825 78 270 -1408
2022-08-08 19:25:13 GMT 51.315079 -2.644884 4,875 78 270 -1728
2022-08-08 19:25:09 GMT 51.313972 -2.653961 4,975 78 270 -1728
2022-08-08 19:25:06 GMT 51.313416 -2.658463 5,100 78 269 -1920
2022-08-08 19:25:03 GMT 51.311874 -2.671014 5,375 78 269 -1920
2022-08-08 19:24:59 GMT 51.311874 -2.671014 5,300 78 269 -1920
2022-08-08 19:24:56 GMT 51.311005 -2.677992 5,375 79 268 -1728
2022-08-08 19:24:53 GMT 51.310272 -2.683856 7,100 79 268 -1600
2022-08-08 19:24:50 GMT 51.309643 -2.688980 5,550 79 268 -1536
2022-08-08 19:24:48 GMT 51.309174 -2.692987 5,750 79 271 -1344
2022-08-08 19:24:45 GMT 51.308529 -2.698593 5,700 79 271 -1344
2022-08-08 19:24:42 GMT 51.307800 -2.704344 5,700 79 271 -1344
2022-08-08 19:24:40 GMT 51.307343 -2.708501 6,100 79 272 -1408
2022-08-08 19:24:38 GMT 51.306061 -2.719562 5,875 79 272 -1472
2022-08-08 19:24:35 GMT 51.306061 -2.719562 5,900 79 272 -1472
2022-08-08 19:24:32 GMT 51.305649 -2.723273 5,950 79 273 -1408
2022-08-08 19:24:29 GMT 51.304756 -2.730942 6,025 79 274 -1280
2022-08-08 19:24:26 GMT 51.304138 -2.736412 6,200 79 276 -1344
2022-08-08 19:24:23 GMT 51.303497 -2.742202 6,150 79 276 -1216
2022-08-08 19:24:20 GMT 51.302753 -2.748871 6,225 79 276 -1344
2022-08-08 19:24:18 GMT 51.302334 -2.752457 6,300 80 277 -1408
2022-08-08 19:24:15 GMT 51.301777 -2.757721 6,975 80 277 -1728
2022-08-08 19:24:12 GMT 51.301033 -2.764740 6,400 80 278 -1472
2022-08-08 19:24:10 GMT 51.300430 -2.770114 6,600 80 277 -1472
2022-08-08 19:24:06 GMT 51.299652 -2.777611 6,600 80 277 -1472
2022-08-08 19:24:03 GMT 51.298985 -2.784119 6,775 80 278 -1472
2022-08-08 19:24:00 GMT 51.298424 -2.789230 6,700 80 278 -1536
2022-08-08 19:23:58 GMT 51.298004 -2.793348 6,775 80 278 -1600
2022-08-08 19:23:55 GMT 51.297409 -2.798841 6,875 80 278 -1664
2022-08-08 19:23:52 GMT 51.296749 -2.805176 6,925 80 277 -1728
2022-08-08 19:23:50 GMT 51.296356 -2.809160 7,000 80 277 -1728
2022-08-08 19:23:48 GMT 51.295307 -2.819138 7,050 80 277 -1600
2022-08-08 19:23:45 GMT 51.295307 -2.819138 7,250 80 278 -1536
2022-08-08 19:23:42 GMT 51.294655 -2.825012 7,225 79 279 -1344
2022-08-08 19:23:39 GMT 51.294022 -2.830984 7,325 79 280 -1088
2022-08-08 19:23:36 GMT 51.293163 -2.838364 7,325 78 280 -960
2022-08-08 19:23:33 GMT 51.292561 -2.843475 7,375 77 281 -832
2022-08-08 19:23:30 GMT 51.291580 -2.850494 7,400 75 282 -704
2022-08-08 19:23:26 GMT 51.289253 -2.864380 7,450 73 283 -512
2022-08-08 19:23:23 GMT 51.288044 -2.870331 7,475 70 282 -512
2022-08-08 19:23:20 GMT 51.288044 -2.870331 7,475 70 281 -512
2022-08-08 19:23:17 GMT 51.286972 -2.875300 7,525 70 281 -448
2022-08-08 19:23:14 GMT 51.285389 -2.882462 7,525 70 281 -448
2022-08-08 19:23:11 GMT 51.284409 -2.886880 7,550 70 280 -512
2022-08-08 19:23:08 GMT 51.283035 -2.893116 7,600 70 281 -512
2022-08-08 19:23:05 GMT 51.281525 -2.900168 7,625 71 281 -704
2022-08-08 19:23:02 GMT 51.280689 -2.903976 7,700 71 281 -960
2022-08-08 19:22:59 GMT 51.279198 -2.911072 7,700 71 281 -1088
2022-08-08 19:22:56 GMT 51.276993 -2.921324 7,750 71 282 -1152
2022-08-08 19:22:54 GMT 51.276314 -2.924576 7,800 71 281 -1280
2022-08-08 19:22:52 GMT 51.276314 -2.924576 7,950 71 282 -1664
2022-08-08 19:22:49 GMT 51.275024 -2.930603 7,950 71 282 -1664
2022-08-08 19:22:46 GMT 51.273560 -2.937507 8,000 71 282 -1600
2022-08-08 19:22:42 GMT 51.271774 -2.945746 8,125 71 283 -1536
2022-08-08 19:22:39 GMT 51.270950 -2.949681 8,175 71 283 -1536
2022-08-08 19:22:37 GMT 51.269989 -2.954283 8,200 71 283 -1536
2022-08-08 19:22:34 GMT 51.268909 -2.959290 8,350 71 283 -1600
2022-08-08 19:22:31 GMT 51.267700 -2.965121 8,400 71 283 -1600
2022-08-08 19:22:29 GMT 51.266769 -2.969360 8,425 71 283 -1600
2022-08-08 19:22:27 GMT 51.265915 -2.973435 8,625 71 285 -1472
2022-08-08 19:22:24 GMT 51.264721 -2.979050 8,625 71 285 -1472
2022-08-08 19:22:21 GMT 51.263512 -2.984848 8,750 71 285 -1472
2022-08-08 19:22:19 GMT 51.261368 -2.994995 8,750 71 286 -1216
2022-08-08 19:22:16 GMT 51.261368 -2.994995 8,825 71 286 -1216
2022-08-08 19:22:13 GMT 51.260101 -3.000826 8,800 71 287 -1216
2022-08-08 19:22:11 GMT 51.258682 -3.007433 8,975 70 289 -1536
2022-08-08 19:22:08 GMT 51.258064 -3.010330 8,925 71 288 -1472
2022-08-08 19:22:05 GMT 51.256527 -3.017349 9,050 70 289 -1664
2022-08-08 19:22:02 GMT 51.255386 -3.022725 9,100 70 289 -1664
2022-08-08 19:21:59 GMT 51.253780 -3.030014 9,925 70 289 -1600
2022-08-08 19:21:54 GMT 51.250534 -3.044846 9,325 70 290 -1536
2022-08-08 19:21:52 GMT 51.250534 -3.044846 9,425 70 290 -1536
2022-08-08 19:21:49 GMT 51.249390 -3.050042 9,575 70 291 -1600
2022-08-08 19:21:47 GMT 51.248428 -3.054428 9,500 70 291 -1536
2022-08-08 19:21:44 GMT 51.247265 -3.059692 9,650 70 291 -1600
2022-08-08 19:21:42 GMT 51.246380 -3.063736 9,650 70 291 -1600
2022-08-08 19:21:39 GMT 51.244904 -3.070456 9,700 70 291 -1664
2022-08-08 19:21:34 GMT 51.242432 -3.081814 9,850 70 292 -1600
2022-08-08 19:21:31 GMT 51.241539 -3.085785 9,900 70 292 -1600
2022-08-08 19:21:29 GMT 51.240189 -3.091983 9,975 70 292 -1600
2022-08-08 19:21:25 GMT 51.238838 -3.098221 10,175 70 293 -1600
2022-08-08 19:21:22 GMT 51.237534 -3.104095 10,225 70 293 -1600
2022-08-08 19:21:19 GMT 51.235996 -3.111267 10,225 70 294 -1664
2022-08-08 19:21:17 GMT 51.233597 -3.122196 10,425 70 295 -1408
2022-08-08 19:21:15 GMT 51.233597 -3.122196 10,375 70 295 -1536
2022-08-08 19:21:12 GMT 51.231483 -3.131714 10,425 70 295 -1472
2022-08-08 19:21:09 GMT 51.231483 -3.131714 10,475 70 297 -1088
2022-08-08 19:21:04 GMT 51.229248 -3.141941 10,600 70 302 -832
2022-08-08 19:21:01 GMT 51.227619 -3.149261 10,625 70 302 -832
2022-08-08 19:20:58 GMT 51.226868 -3.152779 10,675 70 302 -832
2022-08-08 19:20:55 GMT 51.225014 -3.161240 10,700 70 305 -768
2022-08-08 19:20:52 GMT 51.223801 -3.166661 10,750 70 307 -768
2022-08-08 19:20:50 GMT 51.222870 -3.170776 10,750 70 309 -768
2022-08-08 19:20:48 GMT 51.221939 -3.175049 10,775 70 310 -768
2022-08-08 19:20:46 GMT 51.219635 -3.185516 10,825 70 312 -768
2022-08-08 19:20:43 GMT 51.219635 -3.185516 10,825 70 314 -768
2022-08-08 19:20:41 GMT 51.217098 -3.197021 10,875 70 316 -768
2022-08-08 19:20:38 GMT 51.217098 -3.197021 10,950 70 322 -768
2022-08-08 19:20:35 GMT 51.214417 -3.209344 10,950 70 322 -768
2022-08-08 19:20:32 GMT 51.214417 -3.209344 10,950 70 322 -768
2022-08-08 19:20:30 GMT 51.212906 -3.216025 11,000 70 325 -896
2022-08-08 19:20:27 GMT 51.211990 -3.220330 11,025 70 328 -960
2022-08-08 19:20:25 GMT 51.210487 -3.227005 11,075 70 328 -960
2022-08-08 19:20:22 GMT 51.209461 -3.231735 11,100 70 329 -960
2022-08-08 19:20:20 GMT 51.208099 -3.237775 11,125 70 331 -960
2022-08-08 19:20:18 GMT 51.206680 -3.244233 11,275 70 334 -896
2022-08-08 19:20:14 GMT 51.204857 -3.252258 11,300 69 339 -768
2022-08-08 19:20:11 GMT 51.201920 -3.265241 11,325 68 346 -704
2022-08-08 19:20:08 GMT 51.201920 -3.265241 11,325 68 346 -704
2022-08-08 19:20:05 GMT 51.200012 -3.273087 11,350 67 348 -768
2022-08-08 19:20:01 GMT 51.197754 -3.282166 11,400 65 351 -832
2022-08-08 19:19:58 GMT 51.195728 -3.289337 11,925 25 366 -2688
2022-08-08 19:19:54 GMT 51.192986 -3.297501 11,550 57 356 -1088
2022-08-08 19:19:51 GMT 51.190331 -3.304367 11,600 53 358 -1088
2022-08-08 19:19:48 GMT 51.187260 -3.311157 11,625 46 361 -1152
2022-08-08 19:19:44 GMT 51.179626 -3.324181 11,750 40 364 -1280
2022-08-08 19:19:41 GMT 51.179626 -3.324181 11,800 40 364 -1280
2022-08-08 19:19:38 GMT 51.175571 -3.329926 11,875 31 365 -1984
2022-08-08 19:19:35 GMT 51.165798 -3.340454 11,975 31 365 -1920
2022-08-08 19:19:31 GMT 51.165798 -3.340454 12,075 27 365 -2432
2022-08-08 19:19:29 GMT 51.163742 -3.342145 12,600 25 367 -2688
2022-08-08 19:19:27 GMT 51.160538 -3.344727 12,225 25 366 -2688
2022-08-08 19:19:25 GMT 51.155869 -3.348232 12,850 25 369 -2624
2022-08-08 19:19:22 GMT 51.152252 -3.350906 12,600 25 367 -2688
2022-08-08 19:19:20 GMT 51.149921 -3.352661 12,525 25 367 -2688
2022-08-08 19:19:17 GMT 51.144333 -3.356843 12,675 25 368 -2752
2022-08-08 19:19:14 GMT 51.139893 -3.360183 12,825 25 368 -2688
2022-08-08 19:19:11 GMT 51.135864 -3.363153 12,925 25 369 -2624
2022-08-08 19:19:09 GMT 51.132156 -3.365973 13,050 25 369 -2624
2022-08-08 19:19:07 GMT 51.129162 -3.368225 13,200 25 370 -2624
2022-08-08 19:19:04 GMT 51.124603 -3.371615 13,300 25 371 -2688
2022-08-08 19:19:01 GMT 51.116684 -3.377554 13,475 25 373 -2624
2022-08-08 19:18:56 GMT 51.112015 -3.381117 13,700 25 374 -2496
2022-08-08 19:18:53 GMT 51.103184 -3.387756 13,875 25 374 -2496
2022-08-08 19:18:50 GMT 51.103184 -3.387756 13,850 25 375 -2496
2022-08-08 19:18:47 GMT 51.096863 -3.392548 14,125 25 376 -2496
2022-08-08 19:18:44 GMT 51.093639 -3.394928 14,150 25 377 -2496
2022-08-08 19:18:41 GMT 51.088348 -3.398932 14,225 25 377 -2560
2022-08-08 19:18:39 GMT 51.086014 -3.400714 14,325 25 378 -2624
2022-08-08 19:18:37 GMT 51.082214 -3.403609 14,500 25 378 -2688
2022-08-08 19:18:34 GMT 51.077255 -3.407364 14,700 25 380 -2624
2022-08-08 19:18:31 GMT 51.072506 -3.410950 14,700 25 380 -2688
2022-08-08 19:18:29 GMT 51.069260 -3.413408 14,800 25 381 -2624
2022-08-08 19:18:27 GMT 51.065094 -3.416525 14,950 25 381 -2688
2022-08-08 19:18:24 GMT 51.061848 -3.419037 15,025 25 381 -2624
2022-08-08 19:18:21 GMT 51.056351 -3.423206 15,525 25 384 -2624
2022-08-08 19:18:19 GMT 51.054073 -3.424988 15,300 25 383 -2624
2022-08-08 19:18:16 GMT 51.050171 -3.428031 15,325 25 384 -2624
2022-08-08 19:18:13 GMT 51.045135 -3.431854 15,475 25 385 -2688
2022-08-08 19:18:10 GMT 51.039459 -3.436197 15,650 25 385 -2816
2022-08-08 19:18:06 GMT 51.032612 -3.441391 15,825 25 386 -2880
2022-08-08 19:18:04 GMT 51.024307 -3.447703 16,075 25 386 -2944
2022-08-08 19:18:01 GMT 51.024307 -3.447703 16,075 25 386 -2944
2022-08-08 19:17:59 GMT 51.021881 -3.449559 16,375 25 387 -3008
2022-08-08 19:17:56 GMT 51.016644 -3.453522 16,325 25 387 -3008
2022-08-08 19:17:54 GMT 51.013641 -3.455794 16,475 25 388 -2944
2022-08-08 19:17:51 GMT 51.009521 -3.458862 16,525 25 388 -2944
2022-08-08 19:17:49 GMT 51.005333 -3.462067 16,750 25 389 -2944
2022-08-08 19:17:46 GMT 50.999466 -3.466415 18,075 25 389 -2944
2022-08-08 19:17:43 GMT 50.996155 -3.468859 17,000 25 390 -2944
2022-08-08 19:17:40 GMT 50.990112 -3.473387 17,150 25 390 -2880
2022-08-08 19:17:38 GMT 50.987320 -3.475391 17,250 25 390 -2880
2022-08-08 19:17:35 GMT 50.982422 -3.479029 17,425 25 391 -2816
2022-08-08 19:17:32 GMT 50.976467 -3.483505 17,625 24 392 -2688
2022-08-08 19:17:29 GMT 50.974655 -3.484802 17,625 24 392 -2688
2022-08-08 19:17:27 GMT 50.969467 -3.488679 17,700 25 394 -2496
2022-08-08 19:17:25 GMT 50.964600 -3.492279 17,825 25 395 -2496
2022-08-08 19:17:22 GMT 50.961548 -3.494543 18,125 25 396 -2624
2022-08-08 19:17:19 GMT 50.957336 -3.497620 18,050 25 396 -2624
2022-08-08 19:17:16 GMT 50.946537 -3.505707 18,325 25 396 -3456
2022-08-08 19:17:14 GMT 50.946537 -3.505707 18,325 25 396 -3456
2022-08-08 19:17:11 GMT 50.943146 -3.508202 18,450 25 395 -3776
2022-08-08 19:17:09 GMT 50.937378 -3.512581 18,525 25 394 -3840
2022-08-08 19:17:06 GMT 50.934860 -3.514437 18,725 25 394 -3776
2022-08-08 19:17:03 GMT 50.929825 -3.518219 19,750 25 403 -1984
2022-08-08 19:17:00 GMT 50.921036 -3.524830 19,200 25 394 -3136
2022-08-08 19:16:58 GMT 50.921036 -3.524830 19,275 25 395 -2880
2022-08-08 19:16:55 GMT 50.916092 -3.528541 19,425 25 397 -2240
2022-08-08 19:16:52 GMT 50.911854 -3.531723 19,475 25 399 -1856
2022-08-08 19:16:50 GMT 50.909389 -3.533554 19,575 25 398 -1856
2022-08-08 19:16:48 GMT 50.904408 -3.537292 19,675 25 400 -1856
2022-08-08 19:16:45 GMT 50.899979 -3.540641 19,825 25 407 -2752
2022-08-08 19:16:42 GMT 50.894943 -3.544427 19,800 25 403 -2112
2022-08-08 19:16:40 GMT 50.892426 -3.546283 19,925 25 405 -2112
2022-08-08 19:16:38 GMT 50.888111 -3.549500 20,000 25 405 -2176
2022-08-08 19:16:35 GMT 50.882900 -3.553467 20,250 25 406 -2368
2022-08-08 19:16:32 GMT 50.878052 -3.557046 20,175 25 407 -2688
2022-08-08 19:16:30 GMT 50.874939 -3.559418 20,325 25 407 -2688
2022-08-08 19:16:28 GMT 50.870407 -3.562837 20,450 25 407 -2688
2022-08-08 19:16:25 GMT 50.866093 -3.566055 20,575 25 407 -2624
2022-08-08 19:16:22 GMT 50.860886 -3.569963 20,650 25 408 -2624
2022-08-08 19:16:20 GMT 50.852188 -3.576421 20,800 25 408 -2752
2022-08-08 19:16:17 GMT 50.845322 -3.581469 21,050 25 408 -3008
2022-08-08 19:16:13 GMT 50.842941 -3.583250 21,175 25 408 -3264
2022-08-08 19:16:09 GMT 50.839508 -3.585774 21,400 24 407 -3584
2022-08-08 19:16:07 GMT 50.835251 -3.588892 21,550 24 406 -3712
2022-08-08 19:16:05 GMT 50.832436 -3.590927 21,950 24 402 -3968
2022-08-08 19:16:02 GMT 50.826477 -3.595276 21,775 24 403 -4032
2022-08-08 19:16:00 GMT 50.823452 -3.597565 21,875 24 402 -3968
2022-08-08 19:15:57 GMT 50.818378 -3.601227 22,125 24 401 -3904
2022-08-08 19:15:54 GMT 50.809811 -3.607559 22,300 24 400 -3712
2022-08-08 19:15:52 GMT 50.809811 -3.607559 22,400 25 399 -3648
2022-08-08 19:15:49 GMT 50.804924 -3.611145 22,575 24 398 -3776
2022-08-08 19:15:45 GMT 50.791985 -3.620605 22,875 25 395 -4032
2022-08-08 19:15:42 GMT 50.791985 -3.620605 23,125 24 389 -3904
2022-08-08 19:15:39 GMT 50.789566 -3.622371 23,225 24 391 -3968
2022-08-08 19:15:37 GMT 50.780090 -3.629348 23,550 24 387 -3840
2022-08-08 19:15:34 GMT 50.780090 -3.629348 23,750 24 388 -3840
2022-08-08 19:15:31 GMT 50.775738 -3.632431 23,750 24 387 -3776
2022-08-08 19:15:28 GMT 50.770615 -3.636178 23,950 24 385 -3520
2022-08-08 19:15:26 GMT 50.767365 -3.638405 24,050 23 384 -3392
2022-08-08 19:15:24 GMT 50.762970 -3.641448 24,325 21 380 -2944
2022-08-08 19:15:21 GMT 50.758465 -3.644409 24,325 21 380 -2944
2022-08-08 19:15:19 GMT 50.755207 -3.646469 24,425 18 378 -2816
2022-08-08 19:15:16 GMT 50.751984 -3.648352 24,575 10 373 -2368
2022-08-08 19:15:14 GMT 50.748783 -3.650055 24,600 10 373 -2368
2022-08-08 19:15:12 GMT 50.740356 -3.653412 24,800 10 373 -2368
2022-08-08 19:15:10 GMT 50.740356 -3.653412 24,875 2 370 -960
2022-08-08 19:15:07 GMT 50.736073 -3.654480 24,925 3 370 -1216
2022-08-08 19:15:04 GMT 50.731140 -3.655396 24,950 3 370 -1216
2022-08-08 19:15:02 GMT 50.726669 -3.655853 25,000 0 369 -512
2022-08-08 19:14:59 GMT 50.722385 -3.655853 25,000 355 368 64
2022-08-08 19:14:56 GMT 50.717266 -3.655548 25,000 356 369 0
2022-08-08 19:14:53 GMT 50.711308 -3.654709 25,000 355 368 64
2022-08-08 19:14:50 GMT 50.703964 -3.653622 25,000 355 368 64
2022-08-08 19:14:48 GMT 50.703964 -3.653622 25,000 355 368 64
2022-08-08 19:14:45 GMT 50.696922 -3.652649 25,000 355 368 64
2022-08-08 19:14:42 GMT 50.692566 -3.651989 25,000 355 368 64
2022-08-08 19:14:40 GMT 50.689178 -3.651469 25,000 355 368 0
2022-08-08 19:14:38 GMT 50.683331 -3.650589 25,000 355 369 0
2022-08-08 19:14:36 GMT 50.683331 -3.650589 25,000 355 369 0
2022-08-08 19:14:33 GMT 50.676395 -3.649597 25,000 355 369 0
2022-08-08 19:14:30 GMT 50.672058 -3.648946 25,000 355 369 0
2022-08-08 19:14:28 GMT 50.669495 -3.648545 25,000 355 369 -64
2022-08-08 19:14:26 GMT 50.666794 -3.648184 25,000 355 369 0
2022-08-08 19:14:23 GMT 50.658005 -3.646867 25,000 355 369 0
2022-08-08 19:14:21 GMT 50.658005 -3.646867 25,000 355 368 0
2022-08-08 19:14:19 GMT 50.655308 -3.646496 25,000 355 368 0
2022-08-08 19:14:17 GMT 50.650883 -3.645828 25,000 355 368 0
2022-08-08 19:14:14 GMT 50.645809 -3.645011 25,000 355 368 0
2022-08-08 19:14:11 GMT 50.637009 -3.643675 25,000 355 367 0
2022-08-08 19:14:09 GMT 50.637009 -3.643675 25,000 355 367 0
2022-08-08 19:14:06 GMT 50.631798 -3.642933 25,000 355 367 0
2022-08-08 19:14:04 GMT 50.623650 -3.641671 25,000 355 367 0
2022-08-08 19:14:01 GMT 50.618683 -3.640956 25,000 355 367 0
2022-08-08 19:13:58 GMT 50.618683 -3.640956 25,000 355 367 0
2022-08-08 19:13:55 GMT 50.614105 -3.640305 25,000 355 367 0
2022-08-08 19:13:52 GMT 50.608475 -3.639444 25,000 355 367 0
2022-08-08 19:13:49 GMT 50.600281 -3.638209 25,000 355 367 0
2022-08-08 19:13:47 GMT 50.600281 -3.638209 25,000 355 367 0
2022-08-08 19:13:45 GMT 50.596462 -3.637588 25,000 355 367 0
2022-08-08 19:13:43 GMT 50.593250 -3.637143 25,000 355 367 0
2022-08-08 19:13:41 GMT 50.589851 -3.636623 25,000 355 367 0
2022-08-08 19:13:39 GMT 50.585804 -3.636029 25,000 355 367 0
2022-08-08 19:13:37 GMT 50.582703 -3.635535 25,000 355 368 0
2022-08-08 19:13:34 GMT 50.578354 -3.634916 25,000 355 368 0
2022-08-08 19:13:31 GMT 50.573467 -3.634173 25,000 355 368 0
2022-08-08 19:13:28 GMT 50.568020 -3.633357 25,000 355 368 0
2022-08-08 19:13:26 GMT 50.564575 -3.632788 25,000 355 368 0
2022-08-08 19:13:24 GMT 50.559174 -3.631993 25,000 355 368 0
2022-08-08 19:13:21 GMT 50.557297 -3.631777 25,000 355 367 0
2022-08-08 19:13:18 GMT 50.550423 -3.630759 25,000 355 367 0
2022-08-08 19:13:15 GMT 50.540462 -3.629274 25,000 355 367 0
2022-08-08 19:13:12 GMT 50.536411 -3.628680 25,000 355 367 0
2022-08-08 19:13:09 GMT 50.536411 -3.628680 25,000 355 367 0
2022-08-08 19:13:07 GMT 50.532825 -3.628161 25,000 355 367 0
2022-08-08 19:13:05 GMT 50.529694 -3.627657 25,000 355 367 0
2022-08-08 19:13:03 GMT 50.525425 -3.627047 25,000 355 367 0
2022-08-08 19:13:00 GMT 50.515320 -3.625488 25,000 355 367 0
2022-08-08 19:12:58 GMT 50.515320 -3.625488 25,000 355 368 0
2022-08-08 19:12:55 GMT 50.510101 -3.624693 25,000 355 368 0
2022-08-08 19:12:52 GMT 50.506618 -3.624226 25,000 355 368 0
2022-08-08 19:12:49 GMT 50.502457 -3.623537 25,000 355 368 0
2022-08-08 19:12:47 GMT 50.498146 -3.622890 25,000 355 368 0
2022-08-08 19:12:44 GMT 50.493988 -3.622236 25,000 355 368 0
2022-08-08 19:12:41 GMT 50.489162 -3.621554 25,000 355 368 0
2022-08-08 19:12:38 GMT 50.483139 -3.620573 25,000 355 368 0
2022-08-08 19:12:36 GMT 50.479568 -3.620067 25,000 355 368 0
2022-08-08 19:12:33 GMT 50.475243 -3.619401 25,000 355 369 0
2022-08-08 19:12:30 GMT 50.469589 -3.618477 25,000 355 369 0
2022-08-08 19:12:28 GMT 50.466019 -3.617971 25,000 355 369 0
2022-08-08 19:12:26 GMT 50.462345 -3.617397 25,000 355 369 0
2022-08-08 19:12:24 GMT 50.459061 -3.616815 25,000 355 369 0
2022-08-08 19:12:22 GMT 50.456387 -3.616432 25,000 355 369 0
2022-08-08 19:12:19 GMT 50.451233 -3.615658 25,000 355 369 0
2022-08-08 19:12:17 GMT 50.446976 -3.614936 25,000 355 370 0
2022-08-08 19:12:14 GMT 50.442142 -3.614205 25,000 355 370 0
2022-08-08 19:12:11 GMT 50.437958 -3.613562 25,000 355 370 0
2022-08-08 19:12:09 GMT 50.433517 -3.612840 25,000 355 370 0
2022-08-08 19:12:07 GMT 50.430130 -3.612334 25,000 355 371 0
2022-08-08 19:12:04 GMT 50.426456 -3.611755 25,000 355 371 0
2022-08-08 19:12:02 GMT 50.422359 -3.611162 25,000 355 371 0
2022-08-08 19:11:59 GMT 50.412628 -3.609677 25,000 355 371 0
2022-08-08 19:11:55 GMT 50.410393 -3.609306 25,000 355 371 0
2022-08-08 19:11:53 GMT 50.400990 -3.607895 25,000 355 371 0
2022-08-08 19:11:50 GMT 50.400990 -3.607895 25,000 355 371 0
2022-08-08 19:11:48 GMT 50.398041 -3.607419 25,000 355 371 0
2022-08-08 19:11:46 GMT 50.395477 -3.607057 25,000 355 370 0
2022-08-08 19:11:44 GMT 50.391357 -3.606407 25,000 355 370 0
2022-08-08 19:11:41 GMT 50.386414 -3.605612 25,000 355 370 0
2022-08-08 19:11:38 GMT 50.381393 -3.604852 25,000 355 370 0
2022-08-08 19:11:35 GMT 50.374409 -3.603813 25,000 355 370 -64
2022-08-08 19:11:32 GMT 50.369568 -3.603082 25,000 355 370 -64
2022-08-08 19:11:28 GMT 50.363937 -3.602215 25,000 355 370 -64
2022-08-08 19:11:25 GMT 50.359608 -3.601511 25,025 355 370 -256
2022-08-08 19:11:22 GMT 50.353546 -3.600624 25,050 355 371 -512
2022-08-08 19:11:19 GMT 50.349106 -3.599974 25,050 355 371 -512
2022-08-08 19:11:17 GMT 50.344666 -3.599251 25,075 355 371 -704
2022-08-08 19:11:15 GMT 50.342709 -3.598987 25,125 355 373 -1024
2022-08-08 19:11:12 GMT 50.336376 -3.598022 25,200 355 372 -1024
2022-08-08 19:11:09 GMT 50.327545 -3.596649 25,275 355 373 -1024
2022-08-08 19:11:07 GMT 50.327545 -3.596649 25,275 355 373 -1024
2022-08-08 19:11:04 GMT 50.321293 -3.595721 25,325 355 373 -1024
2022-08-08 19:11:01 GMT 50.316879 -3.595059 25,350 355 373 -1024
2022-08-08 19:10:58 GMT 50.312679 -3.594459 25,450 355 374 -1024
2022-08-08 19:10:55 GMT 50.307514 -3.593643 25,450 355 374 -1024
2022-08-08 19:10:52 GMT 50.301460 -3.592752 25,525 355 375 -1024
2022-08-08 19:10:49 GMT 50.296482 -3.592010 25,550 355 375 -1024
2022-08-08 19:10:47 GMT 50.293873 -3.591639 25,575 355 376 -960
2022-08-08 19:10:45 GMT 50.286797 -3.590599 25,675 355 376 -1024
2022-08-08 19:10:43 GMT 50.286797 -3.590599 25,675 355 376 -960
2022-08-08 19:10:41 GMT 50.284103 -3.590144 25,700 355 376 -960
2022-08-08 19:10:38 GMT 50.278931 -3.589421 25,725 355 376 -960
2022-08-08 19:10:36 GMT 50.274647 -3.588743 25,925 355 376 -960
2022-08-08 19:10:34 GMT 50.271286 -3.588265 25,850 355 376 -960
2022-08-08 19:10:32 GMT 50.267990 -3.587759 25,900 355 376 -960
2022-08-08 19:10:29 GMT 50.261765 -3.586819 25,875 355 376 -960
2022-08-08 19:10:27 GMT 50.258217 -3.586294 25,925 355 376 -1024
2022-08-08 19:10:24 GMT 50.254486 -3.585735 25,950 355 376 -1024
2022-08-08 19:10:21 GMT 50.248947 -3.584940 26,025 355 376 -1024
2022-08-08 19:10:18 GMT 50.238152 -3.583325 26,100 355 376 -1088
2022-08-08 19:10:15 GMT 50.238152 -3.583325 26,125 355 376 -1088
2022-08-08 19:10:13 GMT 50.232880 -3.582627 26,175 355 376 -1088
2022-08-08 19:10:10 GMT 50.231030 -3.582360 26,200 355 376 -1088
2022-08-08 19:10:07 GMT 50.223358 -3.581254 26,275 355 377 -1088
2022-08-08 19:10:04 GMT 50.219437 -3.580652 26,325 355 377 -1088
2022-08-08 19:10:01 GMT 50.213974 -3.579881 26,375 355 377 -1088
2022-08-08 19:09:58 GMT 50.208683 -3.579168 26,475 355 377 -1088
2022-08-08 19:09:55 GMT 50.199654 -3.577906 26,550 355 378 -1024
2022-08-08 19:09:53 GMT 50.199654 -3.577906 26,550 355 378 -1088
2022-08-08 19:09:50 GMT 50.195206 -3.577279 26,550 355 378 -1088
2022-08-08 19:09:47 GMT 50.189484 -3.576483 26,625 355 378 -1088
2022-08-08 19:09:45 GMT 50.185822 -3.575978 26,650 355 378 -1024
2022-08-08 19:09:43 GMT 50.183395 -3.575616 26,675 355 378 -1024
2022-08-08 19:09:40 GMT 50.177811 -3.574821 26,725 355 377 -1024
2022-08-08 19:09:37 GMT 50.173462 -3.574243 26,800 355 377 -960
2022-08-08 19:09:34 GMT 50.166000 -3.573231 26,850 355 377 -960
2022-08-08 19:09:31 GMT 50.161835 -3.572653 26,900 355 379 -1024
2022-08-08 19:09:28 GMT 50.157059 -3.571967 26,925 355 377 -896
2022-08-08 19:09:25 GMT 50.152817 -3.571352 26,975 355 377 -896
2022-08-08 19:09:22 GMT 50.141277 -3.569740 27,025 355 376 -832
2022-08-08 19:09:19 GMT 50.141277 -3.569740 27,075 355 376 -832
2022-08-08 19:09:16 GMT 50.136017 -3.568967 27,100 355 376 -832
2022-08-08 19:09:13 GMT 50.130615 -3.568171 27,150 355 376 -832
2022-08-08 19:09:11 GMT 50.126129 -3.567521 27,200 355 376 -896
2022-08-08 19:09:08 GMT 50.121597 -3.566870 27,250 355 376 -960
2022-08-08 19:09:04 GMT 50.115875 -3.566075 27,300 355 376 -1024
2022-08-08 19:09:01 GMT 50.108093 -3.564919 27,450 355 377 -1088
2022-08-08 19:08:58 GMT 50.104359 -3.564395 27,400 355 376 -1088
2022-08-08 19:08:56 GMT 50.101425 -3.563950 27,450 355 377 -1088
2022-08-08 19:08:53 GMT 50.095562 -3.563133 27,475 355 378 -1088
2022-08-08 19:08:51 GMT 50.092850 -3.562751 27,550 355 378 -1088
2022-08-08 19:08:48 GMT 50.087044 -3.561872 27,575 355 378 -1024
2022-08-08 19:08:46 GMT 50.083179 -3.561352 27,600 355 378 -1024
2022-08-08 19:08:43 GMT 50.077965 -3.560610 27,675 355 379 -1024
2022-08-08 19:08:40 GMT 50.072937 -3.559867 27,725 355 379 -1024
2022-08-08 19:08:37 GMT 50.064884 -3.558754 27,775 355 379 -1024
2022-08-08 19:08:35 GMT 50.064884 -3.558754 27,825 355 379 -1088
2022-08-08 19:08:33 GMT 50.060623 -3.558125 27,850 355 379 -1088
2022-08-08 19:08:28 GMT 50.052933 -3.557041 27,925 355 380 -1152
2022-08-08 19:08:26 GMT 50.049335 -3.556527 27,950 355 380 -1152
2022-08-08 19:08:24 GMT 50.041763 -3.555378 28,025 355 380 -1152
2022-08-08 19:08:22 GMT 50.041763 -3.555378 28,050 355 381 -1152
2022-08-08 19:08:20 GMT 50.037975 -3.554894 28,150 355 381 -1216
2022-08-08 19:08:17 GMT 50.032532 -3.554077 28,150 355 381 -1216
2022-08-08 19:08:15 GMT 50.029037 -3.553558 28,175 355 382 -1216
2022-08-08 19:08:12 GMT 50.017586 -3.551924 28,425 355 382 -1152
2022-08-08 19:08:08 GMT 50.017586 -3.551924 28,300 355 382 -1088
2022-08-08 19:08:06 GMT 50.013023 -3.551182 28,350 355 382 -1024
2022-08-08 19:08:04 GMT 50.010498 -3.550825 28,375 355 382 -1024
2022-08-08 19:08:02 GMT 50.007660 -3.550391 28,400 355 382 -1024
2022-08-08 19:08:00 GMT 50.004135 -3.549885 28,450 355 382 -960
2022-08-08 19:07:57 GMT 49.998268 -3.549029 28,500 355 382 -960
2022-08-08 19:07:55 GMT 49.994915 -3.548510 28,525 355 382 -960
2022-08-08 19:07:53 GMT 49.985870 -3.547211 28,600 355 382 -960
2022-08-08 19:07:48 GMT 49.979736 -3.546343 28,650 355 382 -960
2022-08-08 19:07:44 GMT 49.974976 -3.545621 28,700 355 382 -960
2022-08-08 19:07:42 GMT 49.973129 -3.545318 28,750 355 382 -960
2022-08-08 19:07:40 GMT 49.968658 -3.544681 28,750 355 382 -960
2022-08-08 19:07:37 GMT 49.961864 -3.543685 28,825 355 382 -960
2022-08-08 19:07:34 GMT 49.956711 -3.542946 28,875 355 382 -896
2022-08-08 19:07:31 GMT 49.945953 -3.541356 28,925 355 382 -896
2022-08-08 19:07:28 GMT 49.945953 -3.541356 28,975 355 382 -896
2022-08-08 19:07:25 GMT 49.941845 -3.540790 29,000 355 382 -896
2022-08-08 19:07:23 GMT 49.937611 -3.540122 29,050 355 382 -832
2022-08-08 19:07:20 GMT 49.933746 -3.539528 29,050 355 382 -832
2022-08-08 19:07:17 GMT 49.927601 -3.538637 29,100 355 383 -832
2022-08-08 19:07:15 GMT 49.923431 -3.538031 29,150 355 384 -896
2022-08-08 19:07:12 GMT 49.919453 -3.537449 29,550 355 384 -896
2022-08-08 19:07:10 GMT 49.915775 -3.536855 29,550 355 393 -1024
2022-08-08 19:07:07 GMT 49.910282 -3.536039 29,250 355 385 -960
2022-08-08 19:07:05 GMT 49.905815 -3.535371 29,300 355 386 -960
2022-08-08 19:07:02 GMT 49.901207 -3.534703 29,375 355 387 -960
2022-08-08 19:07:00 GMT 49.897568 -3.534128 29,375 355 388 -1024
2022-08-08 19:06:56 GMT 49.891754 -3.533218 29,475 355 390 -1024
2022-08-08 19:06:54 GMT 49.883606 -3.531960 29,500 355 390 -1024
2022-08-08 19:06:52 GMT 49.883606 -3.531960 29,525 355 391 -1024
2022-08-08 19:06:50 GMT 49.879623 -3.531382 29,550 355 392 -1024
2022-08-08 19:06:47 GMT 49.874672 -3.530620 29,600 355 394 -1024
2022-08-08 19:06:45 GMT 49.866665 -3.529432 29,700 355 396 -1088
2022-08-08 19:06:40 GMT 49.863033 -3.528913 29,700 355 398 -1088
2022-08-08 19:06:38 GMT 49.850185 -3.527131 29,800 356 400 -1088
2022-08-08 19:06:34 GMT 49.850185 -3.527131 29,825 356 402 -1088
2022-08-08 19:06:32 GMT 49.846573 -3.526611 29,875 356 404 -1024
2022-08-08 19:06:30 GMT 49.842735 -3.526240 29,900 359 407 -640
2022-08-08 19:06:28 GMT 49.839012 -3.525869 29,950 358 406 -768
2022-08-08 19:06:25 GMT 49.832447 -3.525349 29,975 359 407 -448
2022-08-08 19:06:23 GMT 49.830688 -3.525310 29,975 359 407 -448
2022-08-08 19:06:21 GMT 49.827560 -3.525201 30,000 0 407 -320
2022-08-08 19:06:19 GMT 49.822220 -3.525166 30,000 1 407 0
2022-08-08 19:06:16 GMT 49.815811 -3.525383 30,000 4 408 0
2022-08-08 19:06:13 GMT 49.811035 -3.525721 30,000 5 407 0
2022-08-08 19:06:10 GMT 49.806145 -3.526166 30,000 4 407 0
2022-08-08 19:06:08 GMT 49.802307 -3.526684 30,000 5 407 0
2022-08-08 19:06:06 GMT 49.797722 -3.527354 30,000 6 408 0
2022-08-08 19:06:03 GMT 49.792831 -3.528170 30,000 6 408 0
2022-08-08 19:06:00 GMT 49.786266 -3.529358 30,000 7 409 0
2022-08-08 19:05:57 GMT 49.782440 -3.530081 30,000 7 408 0
2022-08-08 19:05:55 GMT 49.777657 -3.531139 30,000 8 409 0
2022-08-08 19:05:52 GMT 49.772072 -3.532476 30,000 8 410 0
2022-08-08 19:05:49 GMT 49.767471 -3.533550 30,000 9 409 0
2022-08-08 19:05:47 GMT 49.763271 -3.534703 30,000 10 410 0
2022-08-08 19:05:45 GMT 49.759174 -3.535816 30,000 12 411 0
2022-08-08 19:05:43 GMT 49.756382 -3.536633 30,000 11 410 0
2022-08-08 19:05:41 GMT 49.750797 -3.538340 30,000 12 410 0
2022-08-08 19:05:37 GMT 49.741158 -3.541532 30,000 13 411 0
2022-08-08 19:05:35 GMT 49.741158 -3.541532 30,000 12 410 0
2022-08-08 19:05:33 GMT 49.736435 -3.543235 30,000 13 410 0
2022-08-08 19:05:30 GMT 49.730164 -3.545548 30,000 15 411 0
2022-08-08 19:05:27 GMT 49.725845 -3.547322 30,000 15 411 0
2022-08-08 19:05:24 GMT 49.718948 -3.550174 30,000 15 411 64
2022-08-08 19:05:22 GMT 49.716202 -3.551331 30,000 16 411 64
2022-08-08 19:05:20 GMT 49.712585 -3.552993 30,000 16 410 0
2022-08-08 19:05:18 GMT 49.709225 -3.554523 30,000 17 411 0
2022-08-08 19:05:15 GMT 49.703842 -3.557113 30,000 17 411 0
2022-08-08 19:05:13 GMT 49.700226 -3.558848 30,000 18 411 0
2022-08-08 19:05:11 GMT 49.692856 -3.562678 30,000 19 411 -64
2022-08-08 19:05:06 GMT 49.686905 -3.565931 30,000 20 411 -64
2022-08-08 19:05:04 GMT 49.682648 -3.568388 30,000 20 411 -64
2022-08-08 19:05:02 GMT 49.679077 -3.570412 30,000 21 411 -64
2022-08-08 19:04:59 GMT 49.675507 -3.572580 30,000 22 412 0
2022-08-08 19:04:57 GMT 49.671005 -3.575307 30,000 22 412 0
2022-08-08 19:04:54 GMT 49.665371 -3.578871 30,000 23 411 0
2022-08-08 19:04:52 GMT 49.662766 -3.580652 30,000 23 412 0
2022-08-08 19:04:50 GMT 49.658112 -3.583711 30,000 23 412 0
2022-08-08 19:04:47 GMT 49.655182 -3.585735 30,000 23 412 0
2022-08-08 19:04:44 GMT 49.647354 -3.591084 30,000 23 411 0
2022-08-08 19:04:42 GMT 49.641678 -3.594979 30,000 23 411 0
2022-08-08 19:04:40 GMT 49.641678 -3.594979 30,000 23 411 0
2022-08-08 19:04:37 GMT 49.637161 -3.598022 30,000 23 411 0
2022-08-08 19:04:35 GMT 49.632832 -3.600992 30,000 23 411 0
2022-08-08 19:04:33 GMT 49.629456 -3.603371 30,000 24 411 0
2022-08-08 19:04:30 GMT 49.624237 -3.606913 30,000 23 411 0
2022-08-08 19:04:28 GMT 49.620682 -3.609380 30,000 23 411 0
2022-08-08 19:04:24 GMT 49.614071 -3.613834 30,000 23 412 0
2022-08-08 19:04:21 GMT 49.610394 -3.616358 30,000 23 412 0
2022-08-08 19:04:19 GMT 49.605972 -3.619417 30,000 23 412 -64
2022-08-08 19:04:17 GMT 49.602386 -3.621851 30,000 23 412 0
2022-08-08 19:04:14 GMT 49.593796 -3.627729 30,000 23 412 0
2022-08-08 19:04:09 GMT 49.586231 -3.632837 30,000 23 412 0
2022-08-08 19:04:05 GMT 49.574551 -3.640780 30,000 23 412 0
2022-08-08 19:04:02 GMT 49.574551 -3.640780 30,000 23 412 0
2022-08-08 19:03:58 GMT 49.569149 -3.644492 30,000 23 412 0
2022-08-08 19:03:55 GMT 49.563126 -3.648545 30,000 23 412 0
2022-08-08 19:03:53 GMT 49.559746 -3.650876 30,000 23 412 0
2022-08-08 19:03:51 GMT 49.551552 -3.656443 30,000 23 403 0
2022-08-08 19:03:48 GMT 49.551552 -3.656443 30,000 23 411 0
2022-08-08 19:03:44 GMT 49.544495 -3.661194 30,000 23 411 0
2022-08-08 19:03:42 GMT 49.535660 -3.667193 30,000 23 410 0
2022-08-08 19:03:39 GMT 49.535660 -3.667193 30,000 23 410 0
2022-08-08 19:03:37 GMT 49.531860 -3.669795 30,000 23 409 0
2022-08-08 19:03:34 GMT 49.523026 -3.675794 30,000 23 408 0
2022-08-08 19:03:32 GMT 49.523026 -3.675794 30,000 23 407 0
2022-08-08 19:03:29 GMT 49.517941 -3.679306 30,000 23 405 0
2022-08-08 19:03:26 GMT 49.514236 -3.681793 30,000 23 404 0
2022-08-08 19:03:23 GMT 49.507416 -3.686419 30,000 23 404 0
2022-08-08 19:03:21 GMT 49.504906 -3.688140 30,000 23 403 0
2022-08-08 19:03:19 GMT 49.496475 -3.693864 30,000 23 402 0
2022-08-08 19:03:16 GMT 49.496475 -3.693864 30,000 23 402 0
2022-08-08 19:03:14 GMT 49.493591 -3.695815 30,000 23 403 -64
2022-08-08 19:03:11 GMT 49.486954 -3.700369 30,000 23 403 -64
2022-08-08 19:03:08 GMT 49.481323 -3.704127 30,000 23 402 0
2022-08-08 19:03:04 GMT 49.476135 -3.707663 30,000 23 402 0
2022-08-08 19:03:01 GMT 49.470932 -3.711211 30,000 23 402 0
2022-08-08 19:02:58 GMT 49.465851 -3.714680 30,000 23 402 0
2022-08-08 19:02:56 GMT 49.462032 -3.717239 30,000 23 402 0
2022-08-08 19:02:53 GMT 49.455963 -3.721330 30,000 23 402 0
2022-08-08 19:02:50 GMT 49.450954 -3.724736 30,000 23 402 0
2022-08-08 19:02:47 GMT 49.446388 -3.727854 30,000 23 402 0
2022-08-08 19:02:44 GMT 49.442108 -3.730749 30,000 23 402 0
2022-08-08 19:02:42 GMT 49.438381 -3.733273 30,000 23 402 0
2022-08-08 19:02:40 GMT 49.432938 -3.736985 30,000 23 402 0
2022-08-08 19:02:37 GMT 49.428589 -3.739905 30,000 23 402 0
2022-08-08 19:02:34 GMT 49.424278 -3.742796 30,000 23 402 0
2022-08-08 19:02:32 GMT 49.421448 -3.744718 30,000 23 402 0
2022-08-08 19:02:30 GMT 49.417156 -3.747639 30,000 23 402 0
2022-08-08 19:02:27 GMT 49.413757 -3.749952 30,000 23 402 0
2022-08-08 19:02:24 GMT 49.407799 -3.753999 30,000 23 402 0
2022-08-08 19:02:22 GMT 49.404465 -3.756197 30,000 23 402 0
2022-08-08 19:02:20 GMT 49.400818 -3.758698 30,000 23 402 0
2022-08-08 19:02:17 GMT 49.391739 -3.764860 30,000 23 402 0
2022-08-08 19:02:15 GMT 49.389084 -3.766648 30,000 23 402 0
2022-08-08 19:02:13 GMT 49.389084 -3.766648 30,000 23 402 0
2022-08-08 19:02:10 GMT 49.383911 -3.770142 30,000 23 401 0
2022-08-08 19:02:07 GMT 49.378891 -3.773515 30,000 23 401 0
2022-08-08 19:02:04 GMT 49.373062 -3.777466 30,000 23 401 0
2022-08-08 19:02:02 GMT 49.369766 -3.779731 30,000 23 401 0
2022-08-08 19:01:59 GMT 49.366367 -3.782043 30,000 23 401 0
2022-08-08 19:01:56 GMT 49.360455 -3.786019 30,000 23 401 0
2022-08-08 19:01:53 GMT 49.356033 -3.788982 30,000 23 401 0
2022-08-08 19:01:50 GMT 49.349854 -3.793171 30,000 23 401 0
2022-08-08 19:01:46 GMT 49.343262 -3.797607 30,000 23 401 0
2022-08-08 19:01:43 GMT 49.332012 -3.805245 30,000 23 401 64
2022-08-08 19:01:40 GMT 49.332012 -3.805245 30,000 23 401 64
2022-08-08 19:01:36 GMT 49.325912 -3.809365 30,000 23 401 64
2022-08-08 19:01:33 GMT 49.321930 -3.812045 30,000 23 401 128
2022-08-08 19:01:31 GMT 49.318039 -3.814650 29,975 23 401 256
2022-08-08 19:01:27 GMT 49.308270 -3.821291 29,950 23 401 384
2022-08-08 19:01:25 GMT 49.302357 -3.825266 29,950 23 401 448
2022-08-08 19:01:22 GMT 49.302357 -3.825266 29,900 23 401 640
2022-08-08 19:01:20 GMT 49.297935 -3.828229 29,850 23 402 896
2022-08-08 19:01:17 GMT 49.293594 -3.831130 29,850 23 402 1088
2022-08-08 19:01:14 GMT 49.288651 -3.834510 29,800 23 402 1216
2022-08-08 19:01:12 GMT 49.285263 -3.836764 29,725 23 402 1472
2022-08-08 19:01:09 GMT 49.274872 -3.843736 29,650 23 402 1664
2022-08-08 19:01:06 GMT 49.274872 -3.843736 29,475 23 402 2048
2022-08-08 19:01:03 GMT 49.270515 -3.846660 29,475 23 402 2048
2022-08-08 19:01:01 GMT 49.265854 -3.849863 29,375 23 402 2048
2022-08-08 19:00:57 GMT 49.259033 -3.854441 29,250 23 402 2240
2022-08-08 19:00:53 GMT 49.253712 -3.858008 29,125 23 402 2304
2022-08-08 19:00:51 GMT 49.250381 -3.860286 29,050 23 403 2304
2022-08-08 19:00:48 GMT 49.245518 -3.863501 29,000 23 403 2112
2022-08-08 19:00:45 GMT 49.240677 -3.866765 28,750 23 403 2112
2022-08-08 19:00:43 GMT 49.236237 -3.869793 28,775 23 403 2176
2022-08-08 19:00:41 GMT 49.232986 -3.871906 28,700 23 403 2112
2022-08-08 19:00:39 GMT 49.228363 -3.875005 28,550 23 402 1920
2022-08-08 19:00:36 GMT 49.224895 -3.877379 28,525 23 402 1728
2022-08-08 19:00:33 GMT 49.218563 -3.881643 28,400 23 402 1664
2022-08-08 19:00:31 GMT 49.215775 -3.883526 28,375 23 400 1664
2022-08-08 19:00:28 GMT 49.210602 -3.886992 28,125 23 396 1856
2022-08-08 19:00:25 GMT 49.207123 -3.889301 28,225 23 400 1664
2022-08-08 19:00:23 GMT 49.201618 -3.892991 28,125 23 399 1728
2022-08-08 19:00:20 GMT 49.199158 -3.894653 28,075 23 398 1664
2022-08-08 19:00:18 GMT 49.193253 -3.898597 28,000 23 397 1728
2022-08-08 19:00:15 GMT 49.184875 -3.904231 27,900 23 396 1728
2022-08-08 19:00:13 GMT 49.184875 -3.904231 27,850 23 396 1792
2022-08-08 19:00:10 GMT 49.178833 -3.908245 27,725 23 395 1920
2022-08-08 19:00:06 GMT 49.173222 -3.912000 27,625 23 395 2112
2022-08-08 19:00:02 GMT 49.166290 -3.916696 27,450 23 394 2432
2022-08-08 18:59:57 GMT 49.158783 -3.921697 27,125 23 394 2624
2022-08-08 18:59:54 GMT 49.153931 -3.924936 27,125 23 394 2624
2022-08-08 18:59:52 GMT 49.150692 -3.927106 26,925 23 396 2752
2022-08-08 18:59:50 GMT 49.147430 -3.929303 26,925 23 396 2752
2022-08-08 18:59:48 GMT 49.143219 -3.932049 26,825 23 396 2752
2022-08-08 18:59:45 GMT 49.132004 -3.939585 26,450 23 396 2752
2022-08-08 18:59:41 GMT 49.132004 -3.939585 26,525 23 396 2752
2022-08-08 18:59:38 GMT 49.126904 -3.943008 26,375 23 396 2560
2022-08-08 18:59:34 GMT 49.121876 -3.946332 26,275 23 396 2432
2022-08-08 18:59:32 GMT 49.113373 -3.951979 25,975 23 395 2368
2022-08-08 18:59:30 GMT 49.113373 -3.951979 26,025 23 395 2304
2022-08-08 18:59:27 GMT 49.106689 -3.956487 25,875 23 394 2176
2022-08-08 18:59:24 GMT 49.103531 -3.958599 25,725 23 394 2176
2022-08-08 18:59:21 GMT 49.095245 -3.964113 25,675 23 393 2112
2022-08-08 18:59:19 GMT 49.095245 -3.964113 25,675 23 393 2112
2022-08-08 18:59:16 GMT 49.090210 -3.967543 25,575 23 392 2112
2022-08-08 18:59:12 GMT 49.082493 -3.972714 25,300 23 391 1984
2022-08-08 18:59:09 GMT 49.078209 -3.975605 25,300 23 390 1920
2022-08-08 18:59:06 GMT 49.073273 -3.978930 25,250 23 388 1920
2022-08-08 18:59:02 GMT 49.067036 -3.983122 25,125 23 386 2048
2022-08-08 18:59:00 GMT 49.063591 -3.985435 24,975 23 385 2048
2022-08-08 18:58:57 GMT 49.053726 -3.992051 24,900 23 384 2240
2022-08-08 18:58:54 GMT 49.053726 -3.992051 24,775 23 384 2304
2022-08-08 18:58:51 GMT 49.045944 -3.997263 24,700 23 381 2496
2022-08-08 18:58:49 GMT 49.045944 -3.997263 24,625 23 383 2432
2022-08-08 18:58:45 GMT 49.039948 -4.001207 24,475 23 381 2496
2022-08-08 18:58:42 GMT 49.033630 -4.005432 24,300 23 381 2560
2022-08-08 18:58:40 GMT 49.029922 -4.007897 24,200 23 381 2560
2022-08-08 18:58:37 GMT 49.026768 -4.010010 24,125 23 379 2752
2022-08-08 18:58:35 GMT 49.024292 -4.011630 23,925 23 379 2816
2022-08-08 18:58:32 GMT 49.017838 -4.015925 23,875 23 379 2944
2022-08-08 18:58:29 GMT 49.013596 -4.018755 23,800 23 379 3136
2022-08-08 18:58:27 GMT 49.010197 -4.020996 23,625 23 380 3456
2022-08-08 18:58:24 GMT 49.000946 -4.027123 23,325 23 381 3328
2022-08-08 18:58:21 GMT 48.995998 -4.030392 23,200 23 381 3328
2022-08-08 18:58:18 GMT 48.995998 -4.030392 23,125 23 381 3264
2022-08-08 18:58:16 GMT 48.993252 -4.032199 22,975 23 378 2368
2022-08-08 18:58:13 GMT 48.988083 -4.035596 22,800 23 380 2496
2022-08-08 18:58:10 GMT 48.981800 -4.039788 22,675 23 379 2368
2022-08-08 18:58:07 GMT 48.977829 -4.042405 22,550 23 378 2368
2022-08-08 18:58:04 GMT 48.972839 -4.045715 22,450 23 377 2432
2022-08-08 18:58:00 GMT 48.966568 -4.049870 22,200 23 377 2432
2022-08-08 18:57:57 GMT 48.961807 -4.053040 22,075 23 375 2624
2022-08-08 18:57:53 GMT 48.955963 -4.056846 22,075 23 375 2624
2022-08-08 18:57:50 GMT 48.950638 -4.060434 21,900 23 373 2816
2022-08-08 18:57:47 GMT 48.945099 -4.064096 21,750 23 373 2816
2022-08-08 18:57:43 GMT 48.940338 -4.067195 21,525 23 373 2816
2022-08-08 18:57:40 GMT 48.934937 -4.070787 21,450 23 373 2880
2022-08-08 18:57:36 GMT 48.929123 -4.074660 21,275 23 372 2880
2022-08-08 18:57:33 GMT 48.924225 -4.077900 21,125 23 372 2880
2022-08-08 18:57:30 GMT 48.920071 -4.080626 20,950 23 370 2880
2022-08-08 18:57:27 GMT 48.914017 -4.084660 20,800 23 369 2880
2022-08-08 18:57:24 GMT 48.910080 -4.087196 20,700 23 368 2752
2022-08-08 18:57:19 GMT 48.902847 -4.092046 20,350 23 364 2048
2022-08-08 18:57:14 GMT 48.894058 -4.097900 20,300 23 363 1984
2022-08-08 18:57:11 GMT 48.889297 -4.101070 20,200 23 361 1984
2022-08-08 18:57:09 GMT 48.879227 -4.107760 19,950 23 356 2048
2022-08-08 18:57:04 GMT 48.879227 -4.107760 19,950 23 355 2176
2022-08-08 18:57:01 GMT 48.874355 -4.110983 19,825 23 353 2624
2022-08-08 18:56:59 GMT 48.872177 -4.112408 19,800 23 353 2560
2022-08-08 18:56:54 GMT 48.863480 -4.118183 19,525 23 351 3008
2022-08-08 18:56:51 GMT 48.858807 -4.121319 19,375 23 351 3072
2022-08-08 18:56:49 GMT 48.856522 -4.122831 19,275 23 350 3072
2022-08-08 18:56:44 GMT 48.849243 -4.127620 18,575 23 347 3136
2022-08-08 18:56:39 GMT 48.841911 -4.132450 18,800 23 347 3136
2022-08-08 18:56:33 GMT 48.833809 -4.137798 18,400 23 339 3072
2022-08-08 18:56:29 GMT 48.826859 -4.142409 18,300 23 344 2624
2022-08-08 18:56:24 GMT 48.818726 -4.147773 18,050 23 342 2688
2022-08-08 18:56:19 GMT 48.812675 -4.151748 17,850 23 340 2944
2022-08-08 18:56:15 GMT 48.807266 -4.155297 17,650 23 338 3136
2022-08-08 18:56:13 GMT 48.803596 -4.157747 17,475 23 337 3136
2022-08-08 18:56:10 GMT 48.799942 -4.160156 17,400 23 337 3136
2022-08-08 18:56:07 GMT 48.794613 -4.163674 17,200 23 335 3072
2022-08-08 18:56:03 GMT 48.789368 -4.167128 17,000 23 334 3072
2022-08-08 18:56:00 GMT 48.784561 -4.170297 16,800 23 333 3200
2022-08-08 18:55:57 GMT 48.780228 -4.173070 16,675 23 333 3264
2022-08-08 18:55:52 GMT 48.774536 -4.176847 16,150 23 330 3648
2022-08-08 18:55:49 GMT 48.769798 -4.179936 16,250 23 331 3456
2022-08-08 18:55:44 GMT 48.762630 -4.184635 15,950 23 330 3584
2022-08-08 18:55:40 GMT 48.756958 -4.188397 15,700 23 330 3648
2022-08-08 18:55:38 GMT 48.755089 -4.189622 15,450 23 330 3712
2022-08-08 18:55:33 GMT 48.746017 -4.195510 15,225 23 330 3712
2022-08-08 18:55:30 GMT 48.743172 -4.197428 15,100 23 330 3584
2022-08-08 18:55:27 GMT 48.739540 -4.199813 14,950 23 329 3456
2022-08-08 18:55:23 GMT 48.734097 -4.203355 14,725 23 327 3200
2022-08-08 18:55:20 GMT 48.728302 -4.207130 14,525 23 326 3136
2022-08-08 18:55:18 GMT 48.726833 -4.208125 14,475 23 326 3136
2022-08-08 18:55:14 GMT 48.719879 -4.212693 14,150 23 323 3072
2022-08-08 18:55:11 GMT 48.717754 -4.214052 14,150 23 323 3072
2022-08-08 18:55:08 GMT 48.713100 -4.217160 13,950 23 321 3072
2022-08-08 18:55:02 GMT 48.704254 -4.222942 13,600 23 318 3200
2022-08-08 18:54:59 GMT 48.700974 -4.225088 13,425 23 313 3200
2022-08-08 18:54:57 GMT 48.698135 -4.226919 13,350 23 316 3264
2022-08-08 18:54:51 GMT 48.689163 -4.232835 13,000 23 313 3200
2022-08-08 18:54:48 GMT 48.686096 -4.234807 12,875 23 311 3200
2022-08-08 18:54:41 GMT 48.672684 -4.243610 12,375 23 308 3520
2022-08-08 18:54:38 GMT 48.672684 -4.243610 12,300 23 307 3584
2022-08-08 18:54:32 GMT 48.665268 -4.248469 11,950 23 306 3648
2022-08-08 18:54:28 GMT 48.659821 -4.252061 11,775 23 305 3584
2022-08-08 18:54:23 GMT 48.652451 -4.256850 11,375 23 302 3456
2022-08-08 18:54:19 GMT 48.647964 -4.259737 11,175 23 300 3328
2022-08-08 18:54:09 GMT 48.635559 -4.267907 10,675 23 293 2624
2022-08-08 18:54:07 GMT 48.633545 -4.269174 10,600 23 292 2496
2022-08-08 18:54:00 GMT 48.623905 -4.275489 10,100 23 283 3072
2022-08-08 18:53:56 GMT 48.620041 -4.278018 10,100 23 283 3072
2022-08-08 18:53:49 GMT 48.610703 -4.284105 9,675 23 275 3264
2022-08-08 18:53:47 GMT 48.609474 -4.284957 9,625 23 275 3264
2022-08-08 18:53:40 GMT 48.597794 -4.292556 9,100 23 270 3264
2022-08-08 18:53:37 GMT 48.597794 -4.292556 9,050 23 270 3264
2022-08-08 18:53:27 GMT 48.585983 -4.300302 8,500 23 262 3392
2022-08-08 18:53:17 GMT 48.574539 -4.307697 7,875 23 258 3904
2022-08-08 18:53:07 GMT 48.564240 -4.314387 7,250 23 256 4032
2022-08-08 18:52:59 GMT 48.554581 -4.320585 6,625 23 255 4416
2022-08-08 18:52:56 GMT 48.552521 -4.321923 6,475 23 255 4480
We lost coverage of the aircraft here for a total of 68 minutes
2022-08-08 17:45:16 GMT 48.497375 -4.383762 6,400 287 364 -2816
2022-08-08 17:45:12 GMT 48.495529 -4.374108 6,600 287 365 -2880
2022-08-08 17:45:06 GMT 48.492599 -4.359248 6,875 287 365 -2880
2022-08-08 17:45:02 GMT 48.490768 -4.349670 7,075 287 366 -2688
2022-08-08 17:44:58 GMT 48.488903 -4.340033 7,225 287 367 -2560
2022-08-08 17:44:53 GMT 48.486465 -4.327627 7,450 287 368 -2368
2022-08-08 17:44:48 GMT 48.484016 -4.314880 7,625 287 370 -1920
2022-08-08 17:44:44 GMT 48.481522 -4.302133 7,775 287 373 -1216
2022-08-08 17:44:38 GMT 48.479362 -4.290884 7,875 287 374 -960
2022-08-08 17:44:33 GMT 48.476807 -4.277766 7,950 287 375 -896
2022-08-08 17:44:27 GMT 48.474014 -4.263470 8,050 287 375 -1024
2022-08-08 17:44:23 GMT 48.471821 -4.252070 8,125 287 376 -1536
2022-08-08 17:44:18 GMT 48.469254 -4.238892 8,275 287 376 -1600
2022-08-08 17:44:08 GMT 48.464558 -4.214702 8,575 287 377 -1920
2022-08-08 17:44:01 GMT 48.461014 -4.196707 8,775 287 378 -1472
2022-08-08 17:43:58 GMT 48.459595 -4.189383 8,850 287 378 -1280
2022-08-08 17:43:52 GMT 48.456619 -4.174241 8,950 287 378 -896
2022-08-08 17:43:48 GMT 48.454689 -4.164252 9,000 287 379 -576
2022-08-08 17:43:42 GMT 48.451218 -4.146423 9,075 287 379 -576
2022-08-08 17:43:38 GMT 48.449615 -4.138113 9,275 287 378 -448
2022-08-08 17:43:31 GMT 48.446411 -4.121704 9,150 287 379 -512
2022-08-08 17:43:27 GMT 48.444492 -4.111706 9,200 287 379 -512
2022-08-08 17:43:21 GMT 48.441650 -4.097196 9,225 287 378 -512
2022-08-08 17:43:17 GMT 48.439728 -4.087337 9,275 287 378 -448
2022-08-08 17:43:10 GMT 48.435699 -4.066632 9,325 287 377 -384
2022-08-08 17:43:07 GMT 48.434738 -4.061631 9,350 287 377 -384
2022-08-08 17:42:59 GMT 48.430759 -4.041379 9,400 287 376 -512
2022-08-08 17:42:55 GMT 48.428558 -4.030222 9,425 287 377 -512
2022-08-08 17:42:50 GMT 48.425903 -4.016630 9,475 287 377 -576
2022-08-08 17:42:46 GMT 48.423916 -4.006468 9,525 287 378 -512
2022-08-08 17:42:42 GMT 48.421875 -3.996277 9,550 287 378 -576
2022-08-08 17:42:39 GMT 48.420937 -3.991362 9,575 287 378 -576
2022-08-08 17:42:35 GMT 48.418797 -3.980520 9,600 287 378 -576
2022-08-08 17:42:29 GMT 48.415771 -3.965342 9,675 287 379 -576
2022-08-08 17:42:25 GMT 48.413906 -3.955729 9,700 287 380 -512
2022-08-08 17:42:21 GMT 48.411533 -3.943803 9,750 287 380 -512
2022-08-08 17:42:18 GMT 48.410339 -3.937613 9,775 287 380 -512
2022-08-08 17:42:15 GMT 48.408783 -3.929725 9,800 287 380 -448
2022-08-08 17:42:09 GMT 48.405670 -3.914091 9,850 287 379 -448
2022-08-08 17:42:06 GMT 48.403759 -3.904339 9,875 287 379 -576
2022-08-08 17:42:00 GMT 48.401058 -3.890678 9,925 287 379 -704
2022-08-08 17:41:55 GMT 48.398758 -3.879160 10,000 287 379 -960
2022-08-08 17:41:51 GMT 48.396263 -3.866682 10,075 287 380 -1024
2022-08-08 17:41:45 GMT 48.393566 -3.853021 10,250 287 380 -1024
2022-08-08 17:41:40 GMT 48.391068 -3.840426 10,250 287 380 -1024
2022-08-08 17:41:35 GMT 48.388550 -3.827749 10,350 287 382 -1024
2022-08-08 17:41:29 GMT 48.385208 -3.811270 10,450 287 383 -1024
2022-08-08 17:41:25 GMT 48.383377 -3.802044 10,500 287 383 -1024
2022-08-08 17:41:19 GMT 48.380722 -3.788593 10,600 287 382 -1024
2022-08-08 17:41:14 GMT 48.378021 -3.775071 10,700 287 382 -1024
2022-08-08 17:41:08 GMT 48.375046 -3.760000 10,825 287 382 -1024
2022-08-08 17:41:04 GMT 48.372944 -3.749446 10,850 287 382 -1024
2022-08-08 17:41:01 GMT 48.371475 -3.741901 10,900 287 383 -1024
2022-08-08 17:40:59 GMT 48.370468 -3.736830 10,950 287 383 -960
2022-08-08 17:40:58 GMT 48.368938 -3.729063 10,975 287 384 -1024
2022-08-08 17:40:56 GMT 48.368938 -3.729063 11,050 287 384 -1024
2022-08-08 17:40:53 GMT 48.367355 -3.721267 11,050 287 384 -1024
2022-08-08 17:40:49 GMT 48.364655 -3.707463 11,125 287 384 -1024
2022-08-08 17:40:45 GMT 48.362869 -3.698590 11,200 287 384 -1024
2022-08-08 17:40:39 GMT 48.360329 -3.685913 11,300 287 385 -1024
2022-08-08 17:40:36 GMT 48.358696 -3.677746 11,375 287 385 -1024
2022-08-08 17:40:33 GMT 48.357208 -3.670301 11,375 287 385 -1024
2022-08-08 17:40:29 GMT 48.355160 -3.660110 11,450 287 385 -1024
2022-08-08 17:40:28 GMT 48.354538 -3.657109 11,475 287 385 -1088
2022-08-08 17:40:27 GMT 48.354034 -3.654574 11,475 287 385 -1088
2022-08-08 17:40:25 GMT 48.353020 -3.649340 11,525 287 385 -1088
2022-08-08 17:40:23 GMT 48.351929 -3.644081 11,550 287 385 -1088
2022-08-08 17:40:21 GMT 48.351196 -3.640207 11,575 287 386 -1088
2022-08-08 17:40:19 GMT 48.349247 -3.630620 11,650 287 386 -1024
2022-08-08 17:40:17 GMT 48.348690 -3.627801 11,675 287 386 -1024
2022-08-08 17:40:15 GMT 48.346298 -3.615910 11,750 287 386 -1024
2022-08-08 17:40:12 GMT 48.345802 -3.613418 11,775 287 386 -1024
2022-08-08 17:40:09 GMT 48.344593 -3.607274 11,800 287 386 -1024
2022-08-08 17:40:07 GMT 48.343048 -3.599713 11,850 287 386 -1024
2022-08-08 17:40:03 GMT 48.341564 -3.592168 11,900 287 385 -960
2022-08-08 17:40:02 GMT 48.340496 -3.587036 11,925 287 385 -960
2022-08-08 17:39:59 GMT 48.338516 -3.577177 12,000 287 385 -960
2022-08-08 17:39:56 GMT 48.338306 -3.576050 12,000 287 385 -960
2022-08-08 17:39:53 GMT 48.337051 -3.569906 12,050 287 385 -960
2022-08-08 17:39:52 GMT 48.336319 -3.566190 12,075 287 385 -960
2022-08-08 17:39:51 GMT 48.335281 -3.560944 12,100 287 385 -960
2022-08-08 17:39:49 GMT 48.334255 -3.555812 12,125 287 384 -896
2022-08-08 17:39:46 GMT 48.333115 -3.550345 12,175 287 384 -896
2022-08-08 17:39:44 GMT 48.332069 -3.545115 12,200 287 384 -896
2022-08-08 17:39:43 GMT 48.330627 -3.537959 12,225 287 384 -960
2022-08-08 17:39:41 GMT 48.329910 -3.534288 12,250 287 384 -960
2022-08-08 17:39:39 GMT 48.329361 -3.531682 12,275 287 384 -960
2022-08-08 17:39:37 GMT 48.328354 -3.526611 12,300 287 384 -960
2022-08-08 17:39:36 GMT 48.328068 -3.525238 12,300 287 384 -960
2022-08-08 17:39:35 GMT 48.327320 -3.521407 12,350 287 384 -960
2022-08-08 17:39:34 GMT 48.325836 -3.514076 12,375 287 384 -960
2022-08-08 17:39:31 GMT 48.325367 -3.511650 12,400 287 385 -1024
2022-08-08 17:39:27 GMT 48.323551 -3.502759 12,450 287 385 -1024
2022-08-08 17:39:25 GMT 48.322174 -3.495976 12,550 287 385 -1024
2022-08-08 17:39:22 GMT 48.320709 -3.488665 12,550 287 387 -1024
2022-08-08 17:39:19 GMT 48.319061 -3.480553 12,600 287 388 -1024
2022-08-08 17:39:17 GMT 48.317825 -3.474426 12,625 287 388 -960
2022-08-08 17:39:14 GMT 48.316315 -3.466961 12,675 287 389 -960
2022-08-08 17:39:12 GMT 48.315262 -3.461750 12,725 287 389 -960
2022-08-08 17:39:09 GMT 48.313820 -3.454622 12,775 287 389 -960
2022-08-08 17:39:07 GMT 48.312798 -3.449490 12,800 287 389 -960
2022-08-08 17:39:05 GMT 48.311234 -3.441890 12,850 287 389 -960
2022-08-08 17:39:02 GMT 48.309082 -3.431256 12,900 287 390 -960
2022-08-08 17:39:00 GMT 48.309082 -3.431256 12,900 287 390 -1024
2022-08-08 17:38:58 GMT 48.307983 -3.425833 12,950 287 390 -1024
2022-08-08 17:38:57 GMT 48.306335 -3.417804 13,000 287 391 -1024
2022-08-08 17:38:55 GMT 48.306335 -3.417804 13,000 287 392 -1024
2022-08-08 17:38:54 GMT 48.304604 -3.409087 13,050 287 392 -1024
2022-08-08 17:38:52 GMT 48.304604 -3.409087 13,050 287 392 -1024
2022-08-08 17:38:50 GMT 48.303581 -3.404172 13,075 287 393 -1088
2022-08-08 17:38:48 GMT 48.302742 -3.399979 13,125 287 395 -1088
2022-08-08 17:38:47 GMT 48.301346 -3.393185 13,150 287 395 -1088
2022-08-08 17:38:46 GMT 48.301346 -3.393185 13,150 287 396 -1088
2022-08-08 17:38:45 GMT 48.301071 -3.391747 13,175 287 396 -1088
2022-08-08 17:38:42 GMT 48.299763 -3.385307 13,225 287 396 -1152
2022-08-08 17:38:41 GMT 48.298782 -3.380479 13,250 287 397 -1152
2022-08-08 17:38:37 GMT 48.297180 -3.372591 13,325 287 398 -1216
2022-08-08 17:38:36 GMT 48.295853 -3.366081 13,375 288 399 -1280
2022-08-08 17:38:33 GMT 48.295074 -3.362239 13,375 288 399 -1280
2022-08-08 17:38:32 GMT 48.294525 -3.359633 13,425 288 399 -1280
2022-08-08 17:38:30 GMT 48.290359 -3.339121 13,550 288 399 -1408
2022-08-08 17:38:25 GMT 48.290359 -3.339121 13,675 287 399 -1664
2022-08-08 17:38:22 GMT 48.288822 -3.331459 13,675 287 398 -1920
2022-08-08 17:38:19 GMT 48.287006 -3.322714 13,825 287 398 -2304
2022-08-08 17:38:15 GMT 48.285145 -3.313462 14,100 287 397 -2624
2022-08-08 17:38:12 GMT 48.282532 -3.300687 14,175 288 396 -2880
2022-08-08 17:38:08 GMT 48.280910 -3.292718 14,325 288 395 -3136
2022-08-08 17:38:06 GMT 48.280396 -3.290044 14,400 288 395 -3200
2022-08-08 17:38:04 GMT 48.278275 -3.279771 14,600 288 394 -3328
2022-08-08 17:38:02 GMT 48.278275 -3.279771 14,600 288 394 -3392
2022-08-08 17:38:01 GMT 48.277699 -3.277034 14,675 288 393 -3584
2022-08-08 17:38:00 GMT 48.275883 -3.268144 14,875 288 392 -3840
2022-08-08 17:37:58 GMT 48.275883 -3.268144 14,875 288 392 -3840
2022-08-08 17:37:57 GMT 48.274841 -3.263080 15,000 288 392 -3712
2022-08-08 17:37:54 GMT 48.274063 -3.259207 15,100 288 392 -3456
2022-08-08 17:37:53 GMT 48.272095 -3.249559 15,175 288 392 -3200
2022-08-08 17:37:51 GMT 48.272095 -3.249559 15,600 288 392 -3200
2022-08-08 17:37:48 GMT 48.270527 -3.241906 15,600 288 392 -3200
2022-08-08 17:37:45 GMT 48.269165 -3.235333 15,600 288 391 -3264
2022-08-08 17:37:43 GMT 48.267548 -3.227378 15,900 288 391 -3328
2022-08-08 17:37:40 GMT 48.266197 -3.220946 15,900 288 390 -3520
2022-08-08 17:37:38 GMT 48.265137 -3.215614 16,025 287 390 -3648
2022-08-08 17:37:36 GMT 48.264011 -3.210321 16,125 288 389 -3712
2022-08-08 17:37:35 GMT 48.263580 -3.208149 16,225 288 388 -3840
2022-08-08 17:37:34 GMT 48.261543 -3.198250 16,375 288 388 -3840
2022-08-08 17:37:31 GMT 48.261543 -3.198250 16,750 287 386 -3008
2022-08-08 17:37:25 GMT 48.258865 -3.185049 16,750 287 386 -3008
2022-08-08 17:37:22 GMT 48.256374 -3.172880 16,975 287 387 -2624
2022-08-08 17:37:18 GMT 48.254189 -3.162400 17,125 287 387 -2688
2022-08-08 17:37:14 GMT 48.251022 -3.146716 17,400 288 389 -2816
2022-08-08 17:37:11 GMT 48.251022 -3.146716 17,400 288 389 -2816
2022-08-08 17:37:06 GMT 48.248520 -3.134484 17,750 288 390 -2496
2022-08-08 17:37:01 GMT 48.246002 -3.122089 17,850 288 390 -2496
2022-08-08 17:36:57 GMT 48.243851 -3.111807 18,175 287 403 -1984
2022-08-08 17:36:51 GMT 48.240082 -3.093230 18,300 287 394 -2112
2022-08-08 17:36:49 GMT 48.239548 -3.090750 18,350 287 394 -2112
2022-08-08 17:36:47 GMT 48.238407 -3.085134 18,450 287 397 -1856
2022-08-08 17:36:44 GMT 48.235332 -3.069956 18,775 287 403 -1984
2022-08-08 17:36:41 GMT 48.233093 -3.058988 18,775 287 403 -1984
2022-08-08 17:36:37 GMT 48.233093 -3.058988 18,775 287 403 -1984
2022-08-08 17:36:31 GMT 48.227745 -3.033022 18,975 287 403 -1984
2022-08-08 17:36:27 GMT 48.227745 -3.033022 19,075 288 405 -2176
2022-08-08 17:36:24 GMT 48.225510 -3.022035 19,250 288 407 -2304
2022-08-08 17:36:23 GMT 48.225510 -3.022035 19,250 288 407 -2368
2022-08-08 17:36:22 GMT 48.224346 -3.016398 19,300 288 407 -2368
2022-08-08 17:36:20 GMT 48.223789 -3.013651 19,350 288 408 -2304
2022-08-08 17:36:19 GMT 48.222702 -3.008423 19,450 288 408 -2240
2022-08-08 17:36:17 GMT 48.222115 -3.005628 19,450 288 408 -2240
2022-08-08 17:36:13 GMT 48.218109 -2.986185 19,700 288 409 -1984
2022-08-08 17:36:10 GMT 48.218109 -2.986185 19,700 288 410 -1856
2022-08-08 17:36:06 GMT 48.215782 -2.975416 19,800 290 411 -1600
2022-08-08 17:36:02 GMT 48.213036 -2.963923 19,900 292 412 -1216
2022-08-08 17:36:01 GMT 48.211304 -2.957153 19,950 293 412 -896
2022-08-08 17:35:59 GMT 48.211304 -2.957153 19,950 293 413 -832
2022-08-08 17:35:58 GMT 48.209702 -2.951308 19,975 293 413 -576
2022-08-08 17:35:55 GMT 48.206909 -2.941378 20,000 293 413 -320
2022-08-08 17:35:53 GMT 48.206909 -2.941378 20,000 293 413 -192
2022-08-08 17:35:50 GMT 48.204346 -2.932364 20,000 293 413 -64
2022-08-08 17:35:48 GMT 48.202789 -2.926870 20,000 293 413 -64
2022-08-08 17:35:47 GMT 48.202095 -2.924387 20,000 293 413 0
2022-08-08 17:35:44 GMT 48.200180 -2.917645 20,000 293 413 0
2022-08-08 17:35:41 GMT 48.198139 -2.910437 20,000 293 413 0
2022-08-08 17:35:38 GMT 48.196381 -2.904264 20,000 293 413 0
2022-08-08 17:35:37 GMT 48.195694 -2.901870 20,000 293 412 0
2022-08-08 17:35:35 GMT 48.193405 -2.893700 20,000 293 412 0
2022-08-08 17:35:33 GMT 48.191895 -2.888489 20,000 293 412 0
2022-08-08 17:35:32 GMT 48.191071 -2.885531 20,000 293 413 0
2022-08-08 17:35:30 GMT 48.189945 -2.881454 20,000 293 413 0
2022-08-08 17:35:27 GMT 48.187386 -2.872563 20,000 293 413 -64
2022-08-08 17:35:23 GMT 48.184525 -2.862431 20,000 293 412 0
2022-08-08 17:35:21 GMT 48.182915 -2.856734 20,000 293 412 0
2022-08-08 17:35:19 GMT 48.181824 -2.852924 20,000 293 412 0
2022-08-08 17:35:18 GMT 48.181149 -2.850446 20,000 293 412 0
2022-08-08 17:35:15 GMT 48.178619 -2.841656 20,000 293 412 0
2022-08-08 17:35:12 GMT 48.176422 -2.833768 20,000 293 412 -64
2022-08-08 17:35:08 GMT 48.173721 -2.824331 20,000 293 412 0
2022-08-08 17:35:03 GMT 48.169930 -2.811054 20,000 293 412 0
2022-08-08 17:35:00 GMT 48.165573 -2.795668 20,000 293 412 0
2022-08-08 17:34:57 GMT 48.165573 -2.795668 20,000 293 412 0
2022-08-08 17:34:53 GMT 48.162460 -2.784682 20,000 294 411 0
2022-08-08 17:34:50 GMT 48.160217 -2.776794 20,000 294 411 0
2022-08-08 17:34:47 GMT 48.157730 -2.768062 20,000 294 411 0
2022-08-08 17:34:44 GMT 48.154984 -2.758343 20,000 294 411 0
2022-08-08 17:34:39 GMT 48.148560 -2.735877 20,000 294 411 0
2022-08-08 17:34:35 GMT 48.148560 -2.735877 20,000 294 410 0
2022-08-08 17:34:34 GMT 48.147949 -2.733604 20,000 294 410 0
2022-08-08 17:34:32 GMT 48.146393 -2.728111 20,000 294 410 0
2022-08-08 17:34:30 GMT 48.145210 -2.724046 20,000 294 410 0
2022-08-08 17:34:29 GMT 48.144417 -2.721229 20,000 294 410 0
2022-08-08 17:34:26 GMT 48.141857 -2.712355 20,000 294 409 0
2022-08-08 17:34:22 GMT 48.138657 -2.700989 20,000 294 409 0
2022-08-08 17:34:20 GMT 48.137924 -2.698448 20,000 294 409 0
2022-08-08 17:34:17 GMT 48.135342 -2.689467 20,000 294 409 -64
2022-08-08 17:34:15 GMT 48.133430 -2.682706 20,025 294 409 -192
2022-08-08 17:34:12 GMT 48.131149 -2.674759 20,025 294 409 -256
2022-08-08 17:34:08 GMT 48.128963 -2.667072 20,050 294 410 -448
2022-08-08 17:34:06 GMT 48.127441 -2.661781 20,050 294 412 -768
2022-08-08 17:34:02 GMT 48.124260 -2.650663 20,125 294 413 -960
2022-08-08 17:34:01 GMT 48.123550 -2.648186 20,125 294 414 -1088
2022-08-08 17:33:59 GMT 48.122314 -2.643997 20,175 294 414 -1088
2022-08-08 17:33:58 GMT 48.121216 -2.640083 20,175 294 416 -1344
2022-08-08 17:33:56 GMT 48.119751 -2.635071 20,250 294 416 -1344
2022-08-08 17:33:55 GMT 48.118675 -2.631226 20,275 294 417 -1600
2022-08-08 17:33:53 GMT 48.117512 -2.627282 20,350 294 417 -1728
2022-08-08 17:33:51 GMT 48.116318 -2.623192 20,450 294 418 -1728
2022-08-08 17:33:49 GMT 48.114017 -2.615098 20,475 294 420 -1984
2022-08-08 17:33:47 GMT 48.111736 -2.607070 20,575 294 421 -2304
2022-08-08 17:33:45 GMT 48.111736 -2.607070 20,575 294 421 -2304
2022-08-08 17:33:43 GMT 48.110203 -2.601788 20,650 294 421 -2432
2022-08-08 17:33:41 GMT 48.108444 -2.595726 20,800 294 421 -2496
2022-08-08 17:33:40 GMT 48.107639 -2.592914 20,800 294 422 -2624
2022-08-08 17:33:39 GMT 48.106895 -2.590238 20,825 294 422 -2688
2022-08-08 17:33:36 GMT 48.104919 -2.583435 20,950 294 422 -2752
2022-08-08 17:33:32 GMT 48.101685 -2.572350 21,100 294 422 -2816
2022-08-08 17:33:28 GMT 48.098145 -2.560158 21,350 294 423 -2944
2022-08-08 17:33:25 GMT 48.096188 -2.553335 21,500 294 423 -2944
2022-08-08 17:33:23 GMT 48.094608 -2.547983 21,600 294 423 -2944
2022-08-08 17:33:20 GMT 48.092327 -2.539884 21,700 294 424 -2880
2022-08-08 17:33:17 GMT 48.090088 -2.532211 21,950 294 425 -2880
2022-08-08 17:33:14 GMT 48.087021 -2.521644 22,050 294 425 -2816
2022-08-08 17:33:10 GMT 48.084690 -2.513545 22,200 294 425 -2816
2022-08-08 17:33:06 GMT 48.081245 -2.501714 22,375 294 425 -2880
2022-08-08 17:33:02 GMT 48.078407 -2.491995 22,725 294 427 -2688
2022-08-08 17:32:58 GMT 48.074158 -2.477280 22,825 294 428 -2624
2022-08-08 17:32:55 GMT 48.070259 -2.463825 23,075 294 430 -2304
2022-08-08 17:32:52 GMT 48.068710 -2.458534 23,075 294 430 -2304
2022-08-08 17:32:50 GMT 48.068710 -2.458534 23,100 294 430 -2304
2022-08-08 17:32:45 GMT 48.064545 -2.444046 23,325 294 432 -2496
2022-08-08 17:32:43 GMT 48.062988 -2.438553 23,400 294 433 -2368
2022-08-08 17:32:40 GMT 48.060791 -2.430862 23,500 294 433 -2304
2022-08-08 17:32:34 GMT 48.056213 -2.414932 23,700 293 436 -1408
2022-08-08 17:32:32 GMT 48.054710 -2.409527 23,750 293 435 -1728
2022-08-08 17:32:30 GMT 48.052780 -2.402779 23,825 293 437 -960
2022-08-08 17:32:26 GMT 48.050034 -2.393028 23,950 293 437 -832
2022-08-08 17:32:22 GMT 48.046875 -2.381699 23,950 293 437 -704
2022-08-08 17:32:20 GMT 48.044933 -2.374878 23,975 293 438 -384
2022-08-08 17:32:15 GMT 48.041489 -2.362554 24,000 298 442 0
2022-08-08 17:32:12 GMT 48.038696 -2.352835 24,000 296 442 0
2022-08-08 17:32:08 GMT 48.035206 -2.341849 24,000 298 442 0
2022-08-08 17:32:05 GMT 48.028084 -2.323045 24,000 308 443 0
2022-08-08 17:32:02 GMT 48.028084 -2.323045 24,000 304 443 -64
2022-08-08 17:31:59 GMT 48.025246 -2.316707 24,000 307 443 0
2022-08-08 17:31:55 GMT 48.021332 -2.308708 24,000 311 442 0
2022-08-08 17:31:51 GMT 48.016865 -2.300227 24,000 313 442 0
2022-08-08 17:31:49 GMT 48.013412 -2.294426 24,000 313 442 0
2022-08-08 17:31:45 GMT 48.008057 -2.286049 24,000 320 442 64
2022-08-08 17:31:39 GMT 47.992584 -2.266273 24,000 324 442 0
2022-08-08 17:31:36 GMT 47.992584 -2.266273 24,000 327 442 0
2022-08-08 17:31:33 GMT 47.989609 -2.263046 24,000 327 442 0
2022-08-08 17:31:31 GMT 47.985214 -2.258583 24,000 329 442 0
2022-08-08 17:31:29 GMT 47.981735 -2.255356 24,000 333 441 0
2022-08-08 17:31:24 GMT 47.974228 -2.249107 24,000 335 441 0
2022-08-08 17:31:21 GMT 47.966949 -2.243683 24,000 335 441 64
2022-08-08 17:31:18 GMT 47.963242 -2.241074 24,000 335 441 64
2022-08-08 17:31:13 GMT 47.953812 -2.234550 24,000 335 441 64
2022-08-08 17:31:11 GMT 47.947639 -2.230225 24,000 335 441 64
2022-08-08 17:31:08 GMT 47.943100 -2.227066 24,000 335 441 0
2022-08-08 17:31:03 GMT 47.934814 -2.221298 24,000 335 441 0
2022-08-08 17:31:00 GMT 47.929531 -2.217619 24,000 335 440 0
2022-08-08 17:30:58 GMT 47.925751 -2.214981 24,000 335 440 0
2022-08-08 17:30:54 GMT 47.910095 -2.204063 24,000 336 440 0
2022-08-08 17:30:50 GMT 47.910095 -2.204063 24,000 335 439 -64
2022-08-08 17:30:48 GMT 47.906204 -2.201385 24,000 335 439 -64
2022-08-08 17:30:44 GMT 47.899136 -2.196421 24,000 335 439 0
2022-08-08 17:30:39 GMT 47.888535 -2.189095 24,000 335 438 0
2022-08-08 17:30:36 GMT 47.884983 -2.186631 24,000 335 438 64
2022-08-08 17:30:32 GMT 47.877811 -2.181631 24,000 336 437 64
2022-08-08 17:30:29 GMT 47.872131 -2.177687 24,000 335 437 640
2022-08-08 17:30:27 GMT 47.869202 -2.175645 23,975 335 437 256
2022-08-08 17:30:23 GMT 47.861572 -2.170418 23,950 335 437 512
2022-08-08 17:30:19 GMT 47.850906 -2.162969 23,900 335 437 832
2022-08-08 17:30:11 GMT 47.838802 -2.154588 23,775 336 435 1856
2022-08-08 17:30:08 GMT 47.833496 -2.150926 23,700 336 437 1536
2022-08-08 17:30:05 GMT 47.828003 -2.147052 23,625 336 437 1664
2022-08-08 17:30:02 GMT 47.822697 -2.143390 23,075 336 435 1856
2022-08-08 17:29:58 GMT 47.814083 -2.137475 23,400 336 435 1856
2022-08-08 17:29:52 GMT 47.804260 -2.130643 23,225 336 433 1856
2022-08-08 17:29:49 GMT 47.797440 -2.125992 23,100 336 430 2112
2022-08-08 17:29:46 GMT 47.792110 -2.122263 22,975 336 429 2240
2022-08-08 17:29:42 GMT 47.786526 -2.118460 22,750 336 429 2240
2022-08-08 17:29:39 GMT 47.779770 -2.113770 22,750 336 429 2304
2022-08-08 17:29:35 GMT 47.773163 -2.109234 22,525 335 428 2112
2022-08-08 17:29:32 GMT 47.767731 -2.105461 22,325 336 426 1920
2022-08-08 17:29:28 GMT 47.761337 -2.101065 22,400 335 425 1984
2022-08-08 17:29:25 GMT 47.754639 -2.096466 22,250 336 424 2176
2022-08-08 17:29:22 GMT 47.750305 -2.093459 21,300 336 423 2304
2022-08-08 17:29:17 GMT 47.740902 -2.086909 21,950 336 422 2368
2022-08-08 17:29:14 GMT 47.735641 -2.083351 21,850 336 422 2304
2022-08-08 17:29:11 GMT 47.723026 -2.074585 21,300 336 421 2304
2022-08-08 17:29:07 GMT 47.723026 -2.074585 21,600 335 420 2368
2022-08-08 17:29:03 GMT 47.717834 -2.070992 21,450 336 420 2496
2022-08-08 17:29:00 GMT 47.711063 -2.066345 21,300 336 419 2496
2022-08-08 17:28:57 GMT 47.704834 -2.062065 21,150 336 417 2496
2022-08-08 17:28:54 GMT 47.701309 -2.059593 20,975 336 417 2432
2022-08-08 17:28:51 GMT 47.695541 -2.055611 20,925 336 416 2432
2022-08-08 17:28:48 GMT 47.691147 -2.052658 20,825 336 416 2496
2022-08-08 17:28:45 GMT 47.683922 -2.047612 20,650 336 415 2432
2022-08-08 17:28:41 GMT 47.678013 -2.043527 20,525 336 414 2368
2022-08-08 17:28:36 GMT 47.669403 -2.037621 20,325 336 412 2368
2022-08-08 17:28:33 GMT 47.665237 -2.034805 20,175 336 411 2432
2022-08-08 17:28:30 GMT 47.660179 -2.031273 20,100 336 411 2496
2022-08-08 17:28:27 GMT 47.653519 -2.026703 19,950 336 410 2496
2022-08-08 17:28:24 GMT 47.643143 -2.019583 19,750 336 408 2432
2022-08-08 17:28:21 GMT 47.643143 -2.019583 19,675 336 408 2368
2022-08-08 17:28:18 GMT 47.639557 -2.017118 19,425 336 405 2368
2022-08-08 17:28:14 GMT 47.632782 -2.012489 19,400 336 405 2368
2022-08-08 17:28:11 GMT 47.624382 -2.006695 19,275 336 404 2432
2022-08-08 17:28:07 GMT 47.618179 -2.002464 19,025 336 402 2432
2022-08-08 17:28:04 GMT 47.615723 -2.000779 19,075 336 402 2432
2022-08-08 17:28:00 GMT 47.608200 -1.995667 18,900 336 401 2432
2022-08-08 17:27:55 GMT 47.600830 -1.990585 18,725 336 399 2432
2022-08-08 17:27:53 GMT 47.596729 -1.987751 18,575 336 397 2432
2022-08-08 17:27:49 GMT 47.590538 -1.983525 18,450 336 396 2304
2022-08-08 17:27:46 GMT 47.582394 -1.977962 18,275 336 394 2240
2022-08-08 17:27:42 GMT 47.578995 -1.975616 18,200 336 393 2176
2022-08-08 17:27:39 GMT 47.573547 -1.971840 18,075 336 392 2048
2022-08-08 17:27:36 GMT 47.567139 -1.967445 17,950 336 386 2432
2022-08-08 17:27:32 GMT 47.561417 -1.963531 17,725 336 386 2560
2022-08-08 17:27:29 GMT 47.557442 -1.960848 17,725 336 385 3072
2022-08-08 17:27:24 GMT 47.549103 -1.955154 17,375 336 385 3200
2022-08-08 17:27:19 GMT 47.540447 -1.949228 17,150 336 385 3456
2022-08-08 17:27:15 GMT 47.533401 -1.944374 16,900 336 385 3136
2022-08-08 17:27:09 GMT 47.524109 -1.938031 16,600 336 385 3072
2022-08-08 17:27:05 GMT 47.517517 -1.933594 16,275 336 384 2944
2022-08-08 17:27:00 GMT 47.508560 -1.927467 16,125 336 383 2816
2022-08-08 17:26:55 GMT 47.501484 -1.922607 15,900 336 381 2688
2022-08-08 17:26:52 GMT 47.497742 -1.920067 15,725 336 378 2496
2022-08-08 17:26:48 GMT 47.491104 -1.915494 15,625 336 378 2432
2022-08-08 17:26:45 GMT 47.483551 -1.910316 15,450 336 375 2496
2022-08-08 17:26:39 GMT 47.477097 -1.905922 14,975 336 372 3008
2022-08-08 17:26:36 GMT 47.472244 -1.902557 14,975 336 372 3008
2022-08-08 17:26:33 GMT 47.467667 -1.899467 15,050 336 372 2880
2022-08-08 17:26:30 GMT 47.460751 -1.894719 14,750 336 371 3200
2022-08-08 17:26:25 GMT 47.453072 -1.889508 14,450 336 371 3456
2022-08-08 17:26:22 GMT 47.449532 -1.887043 14,350 336 371 3520
2022-08-08 17:26:17 GMT 47.441803 -1.881752 14,050 336 371 3648
2022-08-08 17:26:14 GMT 47.437134 -1.878593 13,725 336 371 3584
2022-08-08 17:26:10 GMT 47.430679 -1.874155 13,625 336 371 3648
2022-08-08 17:26:07 GMT 47.426022 -1.870986 13,425 336 370 3648
2022-08-08 17:26:03 GMT 47.419926 -1.866831 12,725 336 369 3392
2022-08-08 17:26:00 GMT 47.415985 -1.864105 13,050 336 370 3456
2022-08-08 17:25:57 GMT 47.405869 -1.857239 12,700 336 369 3456
2022-08-08 17:25:54 GMT 47.405869 -1.857239 12,675 336 369 3456
2022-08-08 17:25:50 GMT 47.400558 -1.853591 12,500 336 368 3328
2022-08-08 17:25:46 GMT 47.394424 -1.849480 12,275 336 366 3072
2022-08-08 17:25:43 GMT 47.387192 -1.844536 12,050 336 365 2944
2022-08-08 17:25:40 GMT 47.384903 -1.842957 11,975 336 364 2816
2022-08-08 17:25:36 GMT 47.378075 -1.838308 11,725 336 360 2432
2022-08-08 17:25:33 GMT 47.374054 -1.835609 11,675 336 358 2240
2022-08-08 17:25:29 GMT 47.368790 -1.831970 11,550 336 352 1536
2022-08-08 17:25:23 GMT 47.359222 -1.825421 11,400 336 346 1216
2022-08-08 17:25:19 GMT 47.352516 -1.820913 11,325 336 334 1280
2022-08-08 17:25:14 GMT 47.346092 -1.816547 11,175 336 327 1344
2022-08-08 17:25:11 GMT 47.341347 -1.813308 11,125 336 321 1408
2022-08-08 17:25:08 GMT 47.337341 -1.810631 11,075 336 323 1408
2022-08-08 17:25:02 GMT 47.330173 -1.805772 10,925 336 314 1408
2022-08-08 17:24:59 GMT 47.325611 -1.802673 10,900 336 310 1408
2022-08-08 17:24:53 GMT 47.317696 -1.797321 10,650 336 300 2176
2022-08-08 17:24:50 GMT 47.313858 -1.794754 10,550 336 296 3840
2022-08-08 17:24:42 GMT 47.304062 -1.788231 10,075 336 296 4032
2022-08-08 17:24:39 GMT 47.301029 -1.786194 9,925 336 295 3712
2022-08-08 17:24:30 GMT 47.288555 -1.778025 8,950 336 292 3392
2022-08-08 17:24:21 GMT 47.278221 -1.771264 8,825 337 289 3776
2022-08-08 17:24:18 GMT 47.274544 -1.768869 8,650 337 288 3648
2022-08-08 17:24:10 GMT 47.263927 -1.761968 7,700 336 284 4032
2022-08-08 17:24:00 GMT 47.251591 -1.754010 7,175 336 284 4032
2022-08-08 17:23:51 GMT 47.241486 -1.747238 6,950 335 282 3584
2022-08-08 17:23:48 GMT 47.238605 -1.745277 6,800 335 282 3520
2022-08-08 17:23:39 GMT 47.227989 -1.736544 6,350 320 271 2304
2022-08-08 17:23:29 GMT 47.218826 -1.722656 5,825 303 258 2240
2022-08-08 17:23:19 GMT 47.213013 -1.706863 5,250 295 248 2688
2022-08-08 17:23:10 GMT 47.209183 -1.694571 5,200 295 240 2624
2022-08-08 17:23:06 GMT 47.207382 -1.688736 5,025 295 235 2624
2022-08-08 17:23:00 GMT 47.204636 -1.679604 4,750 294 226 2240
2022-08-08 17:22:56 GMT 47.203087 -1.674500 4,625 294 178 1920
2022-08-08 17:22:48 GMT 47.199646 -1.662918 4,325 294 207 2240
2022-08-08 17:22:40 GMT 47.196671 -1.652618 4,025 293 197 2240
2022-08-08 17:22:37 GMT 47.195801 -1.649597 3,925 293 195 2240
2022-08-08 17:22:28 GMT 47.192368 -1.637787 3,550 294 181 2048
2022-08-08 17:22:19 GMT 47.189587 -1.628371 3,275 295 168 2112
2022-08-08 17:22:16 GMT 47.188705 -1.625496 3,200 295 167 2176
2022-08-08 17:22:07 GMT 47.185535 -1.615694 2,725 298 165 2944
2022-08-08 17:21:55 GMT 47.180599 -1.605272 2,175 319 159 2560
2022-08-08 17:21:51 GMT 47.178268 -1.602768 2,000 334 153 2688

Making use of Plane Finder data

You are free to use the raw flight data, aircraft information and images provided in this report for your own purposes provided the data is correctly attributed to Plane Finder. We ask that you please credit Plane Finder and link to planefinder.net in close proximity to the content.

Optionally one of the following logos (no smaller then 150x24px) can be used and must link to planefinder.net

Embedding the Plane Finder map

You are welcome to embed the Plane Finder playback map on your website to offer visitors a more interactive experience. We suggest using the following HTML code:

<iframe src="//planefinder.net/data/report/U26024-G-UZHF-7700-squawk-2022-08-08/map" width="800" height="600" seamless="seamless"></iframe>

Where our data comes from

Plane Finder has a global network of data feeds and antenna radars that receive data broadcast directly from aircraft. The primary technologies used are ADS-B and MLAT. We also show feeds from the FAA and a FLARM glider feed.

Click here to find out more about the Plane Finder network.

How we collect our data